<?xml version="1.0" encoding="UTF-8" standalone="no" ?>
<gpx xmlns="http://www.topografix.com/GPX/1/1" xmlns:xsi="http://www.w3.org/2001/XMLSchema-instance" xsi:schemaLocation="http://www.topografix.com/GPX/1/1 http://www.topografix.com/GPX/1/1/gpx.xsd" version="1.1" creator="VisuGPX - https://www.visugpx.com">
  <metadata>
    <name>Giro del Monte La Bianca (val Maira)</name>
    <desc><![CDATA[Marmora ,Colle del Mulo,Colle Valletta ,Preit]]></desc>
  </metadata>
  <wpt lat="44.39812" lon="7.10756">
    <ele>2099.8</ele>
    <name><![CDATA[Alpe Valnnghe]]></name>
    <desc><![CDATA[land]]></desc>
    <cmt><![CDATA[land]]></cmt>
  </wpt>
  <wpt lat="44.38962" lon="7.09308">
    <ele>2523.3</ele>
    <name><![CDATA[Colle del Mulo]]></name>
    <desc><![CDATA[land]]></desc>
    <cmt><![CDATA[land]]></cmt>
  </wpt>
  <wpt lat="44.41436" lon="7.0654">
    <ele>2075.5</ele>
    <name><![CDATA[Grabgia Giancarloso]]></name>
    <desc><![CDATA[G4 Trk]]></desc>
    <cmt><![CDATA[G4 Trk]]></cmt>
  </wpt>
  <wpt lat="44.41047" lon="7.04581">
    <ele>1899.3</ele>
    <name><![CDATA[Grangia Culausa]]></name>
    <desc><![CDATA[G2 Trk]]></desc>
    <cmt><![CDATA[G2 Trk]]></cmt>
  </wpt>
  <wpt lat="44.40864" lon="7.0642">
    <ele>2238.1</ele>
    <name><![CDATA[Lago Nero]]></name>
    <desc><![CDATA[Lago Nero]]></desc>
    <cmt><![CDATA[Lago Nero]]></cmt>
  </wpt>
  <wpt lat="44.45714" lon="7.09194">
    <ele>1192.6</ele>
    <name><![CDATA[Partenza Campeggio Dhau]]></name>
    <desc><![CDATA[land]]></desc>
    <cmt><![CDATA[land]]></cmt>
  </wpt>
  <wpt lat="44.43519" lon="7.05625">
    <ele>1540.9</ele>
    <name><![CDATA[Preit]]></name>
    <desc><![CDATA[tertiary]]></desc>
    <cmt><![CDATA[tertiary]]></cmt>
  </wpt>
  <wpt lat="44.4577" lon="7.09432">
    <ele>1230.8</ele>
    <name><![CDATA[Vernetti]]></name>
    <desc><![CDATA[residential]]></desc>
    <cmt><![CDATA[residential]]></cmt>
  </wpt>
  <trk>
    <name><![CDATA[BIANCA.gpx created from 2012-08-09T06:03:37Z to 2012-08-09T13:27:45Z]]></name>
    <trkseg>
      <trkpt lat="44.45715" lon="7.09195">
        <ele>1200</ele>
        <time>2012-08-09T06:03:36Z</time>
      </trkpt>
      <trkpt lat="44.45715" lon="7.09195">
        <ele>1192.5</ele>
        <time>2012-08-09T06:04:36Z</time>
      </trkpt>
      <trkpt lat="44.45714" lon="7.09193">
        <ele>1201</ele>
        <time>2012-08-09T06:04:38Z</time>
      </trkpt>
      <trkpt lat="44.45715" lon="7.0919">
        <ele>1201</ele>
        <time>2012-08-09T06:05:08Z</time>
      </trkpt>
      <trkpt lat="44.45712" lon="7.09195">
        <ele>1200</ele>
        <time>2012-08-09T06:06:58Z</time>
      </trkpt>
      <trkpt lat="44.45715" lon="7.09186">
        <ele>1201</ele>
        <time>2012-08-09T06:07:02Z</time>
      </trkpt>
      <trkpt lat="44.4572" lon="7.09181">
        <ele>1199</ele>
        <time>2012-08-09T06:07:04Z</time>
      </trkpt>
      <trkpt lat="44.4573" lon="7.09184">
        <ele>1200</ele>
        <time>2012-08-09T06:07:08Z</time>
      </trkpt>
      <trkpt lat="44.45719" lon="7.09207">
        <ele>1203</ele>
        <time>2012-08-09T06:07:18Z</time>
      </trkpt>
      <trkpt lat="44.45716" lon="7.09223">
        <ele>1203</ele>
        <time>2012-08-09T06:07:26Z</time>
      </trkpt>
      <trkpt lat="44.45742" lon="7.09244">
        <ele>1203</ele>
        <time>2012-08-09T06:07:38Z</time>
      </trkpt>
      <trkpt lat="44.45757" lon="7.09261">
        <ele>1203</ele>
        <time>2012-08-09T06:07:46Z</time>
      </trkpt>
      <trkpt lat="44.45733" lon="7.09329">
        <ele>1209</ele>
        <time>2012-08-09T06:08:21Z</time>
      </trkpt>
      <trkpt lat="44.45791" lon="7.09289">
        <ele>1216</ele>
        <time>2012-08-09T06:09:03Z</time>
      </trkpt>
      <trkpt lat="44.45829" lon="7.09282">
        <ele>1219</ele>
        <time>2012-08-09T06:09:26Z</time>
      </trkpt>
      <trkpt lat="44.45872" lon="7.09315">
        <ele>1225</ele>
        <time>2012-08-09T06:09:56Z</time>
      </trkpt>
      <trkpt lat="44.4594" lon="7.09361">
        <ele>1231</ele>
        <time>2012-08-09T06:10:39Z</time>
      </trkpt>
      <trkpt lat="44.45878" lon="7.09369">
        <ele>1238</ele>
        <time>2012-08-09T06:11:16Z</time>
      </trkpt>
      <trkpt lat="44.45822" lon="7.09397">
        <ele>1240</ele>
        <time>2012-08-09T06:11:48Z</time>
      </trkpt>
      <trkpt lat="44.45816" lon="7.09402">
        <ele>1241</ele>
        <time>2012-08-09T06:11:52Z</time>
      </trkpt>
      <trkpt lat="44.45814" lon="7.09406">
        <ele>1241</ele>
        <time>2012-08-09T06:11:54Z</time>
      </trkpt>
      <trkpt lat="44.45809" lon="7.09411">
        <ele>1241</ele>
        <time>2012-08-09T06:11:58Z</time>
      </trkpt>
      <trkpt lat="44.45797" lon="7.09415">
        <ele>1241</ele>
        <time>2012-08-09T06:12:06Z</time>
      </trkpt>
      <trkpt lat="44.45758" lon="7.09444">
        <ele>1243</ele>
        <time>2012-08-09T06:13:17Z</time>
      </trkpt>
      <trkpt lat="44.45754" lon="7.09445">
        <ele>1244</ele>
        <time>2012-08-09T06:13:19Z</time>
      </trkpt>
      <trkpt lat="44.457" lon="7.0968">
        <ele>1247</ele>
        <time>2012-08-09T06:14:36Z</time>
      </trkpt>
      <trkpt lat="44.45691" lon="7.097">
        <ele>1247</ele>
        <time>2012-08-09T06:14:41Z</time>
      </trkpt>
      <trkpt lat="44.45678" lon="7.09717">
        <ele>1247</ele>
        <time>2012-08-09T06:14:46Z</time>
      </trkpt>
      <trkpt lat="44.45656" lon="7.09738">
        <ele>1246</ele>
        <time>2012-08-09T06:14:53Z</time>
      </trkpt>
      <trkpt lat="44.45601" lon="7.09766">
        <ele>1249</ele>
        <time>2012-08-09T06:15:13Z</time>
      </trkpt>
      <trkpt lat="44.45549" lon="7.09831">
        <ele>1259</ele>
        <time>2012-08-09T06:15:54Z</time>
      </trkpt>
      <trkpt lat="44.45471" lon="7.09841">
        <ele>1267</ele>
        <time>2012-08-09T06:16:46Z</time>
      </trkpt>
      <trkpt lat="44.45381" lon="7.09891">
        <ele>1279</ele>
        <time>2012-08-09T06:17:46Z</time>
      </trkpt>
      <trkpt lat="44.45349" lon="7.09915">
        <ele>1282</ele>
        <time>2012-08-09T06:18:08Z</time>
      </trkpt>
      <trkpt lat="44.45329" lon="7.09912">
        <ele>1283</ele>
        <time>2012-08-09T06:18:19Z</time>
      </trkpt>
      <trkpt lat="44.45321" lon="7.09915">
        <ele>1284</ele>
        <time>2012-08-09T06:18:24Z</time>
      </trkpt>
      <trkpt lat="44.45319" lon="7.09916">
        <ele>1283</ele>
        <time>2012-08-09T06:18:31Z</time>
      </trkpt>
      <trkpt lat="44.45293" lon="7.09953">
        <ele>1289</ele>
        <time>2012-08-09T06:20:39Z</time>
      </trkpt>
      <trkpt lat="44.45289" lon="7.09958">
        <ele>1288</ele>
        <time>2012-08-09T06:20:42Z</time>
      </trkpt>
      <trkpt lat="44.45261" lon="7.10002">
        <ele>1293</ele>
        <time>2012-08-09T06:21:08Z</time>
      </trkpt>
      <trkpt lat="44.45255" lon="7.10009">
        <ele>1292</ele>
        <time>2012-08-09T06:21:12Z</time>
      </trkpt>
      <trkpt lat="44.4523" lon="7.10036">
        <ele>1296</ele>
        <time>2012-08-09T06:21:28Z</time>
      </trkpt>
      <trkpt lat="44.45156" lon="7.10046">
        <ele>1306</ele>
        <time>2012-08-09T06:22:16Z</time>
      </trkpt>
      <trkpt lat="44.45149" lon="7.10048">
        <ele>1305</ele>
        <time>2012-08-09T06:22:19Z</time>
      </trkpt>
      <trkpt lat="44.45126" lon="7.10046">
        <ele>1307</ele>
        <time>2012-08-09T06:22:34Z</time>
      </trkpt>
      <trkpt lat="44.45104" lon="7.10066">
        <ele>1312</ele>
        <time>2012-08-09T06:22:49Z</time>
      </trkpt>
      <trkpt lat="44.45094" lon="7.10081">
        <ele>1312</ele>
        <time>2012-08-09T06:22:59Z</time>
      </trkpt>
      <trkpt lat="44.4509" lon="7.1009">
        <ele>1315</ele>
        <time>2012-08-09T06:23:04Z</time>
      </trkpt>
      <trkpt lat="44.45086" lon="7.10098">
        <ele>1315</ele>
        <time>2012-08-09T06:23:09Z</time>
      </trkpt>
      <trkpt lat="44.45081" lon="7.10104">
        <ele>1316</ele>
        <time>2012-08-09T06:23:14Z</time>
      </trkpt>
      <trkpt lat="44.45053" lon="7.10117">
        <ele>1321</ele>
        <time>2012-08-09T06:23:36Z</time>
      </trkpt>
      <trkpt lat="44.45045" lon="7.10123">
        <ele>1321</ele>
        <time>2012-08-09T06:23:43Z</time>
      </trkpt>
      <trkpt lat="44.44989" lon="7.10141">
        <ele>1329</ele>
        <time>2012-08-09T06:24:22Z</time>
      </trkpt>
      <trkpt lat="44.44892" lon="7.10155">
        <ele>1341</ele>
        <time>2012-08-09T06:25:24Z</time>
      </trkpt>
      <trkpt lat="44.44789" lon="7.10215">
        <ele>1355</ele>
        <time>2012-08-09T06:26:43Z</time>
      </trkpt>
      <trkpt lat="44.44773" lon="7.1021">
        <ele>1358</ele>
        <time>2012-08-09T06:26:58Z</time>
      </trkpt>
      <trkpt lat="44.44731" lon="7.10184">
        <ele>1363</ele>
        <time>2012-08-09T06:27:31Z</time>
      </trkpt>
      <trkpt lat="44.44685" lon="7.10181">
        <ele>1366</ele>
        <time>2012-08-09T06:27:58Z</time>
      </trkpt>
      <trkpt lat="44.44614" lon="7.1017">
        <ele>1375</ele>
        <time>2012-08-09T06:28:44Z</time>
      </trkpt>
      <trkpt lat="44.446" lon="7.10152">
        <ele>1371.5</ele>
        <time>2012-08-09T06:29:02Z</time>
      </trkpt>
      <trkpt lat="44.44578" lon="7.10143">
        <ele>1384</ele>
        <time>2012-08-09T06:29:27Z</time>
      </trkpt>
      <trkpt lat="44.44538" lon="7.10161">
        <ele>1392</ele>
        <time>2012-08-09T06:30:06Z</time>
      </trkpt>
      <trkpt lat="44.44523" lon="7.1019">
        <ele>1397</ele>
        <time>2012-08-09T06:31:33Z</time>
      </trkpt>
      <trkpt lat="44.44545" lon="7.10187">
        <ele>1402</ele>
        <time>2012-08-09T06:31:51Z</time>
      </trkpt>
      <trkpt lat="44.44546" lon="7.10187">
        <ele>1402</ele>
        <time>2012-08-09T06:31:51Z</time>
      </trkpt>
      <trkpt lat="44.44552" lon="7.10189">
        <ele>1400</ele>
        <time>2012-08-09T06:31:56Z</time>
      </trkpt>
      <trkpt lat="44.44554" lon="7.10192">
        <ele>1402</ele>
        <time>2012-08-09T06:31:58Z</time>
      </trkpt>
      <trkpt lat="44.44548" lon="7.10222">
        <ele>1405</ele>
        <time>2012-08-09T06:32:16Z</time>
      </trkpt>
      <trkpt lat="44.4454" lon="7.1028">
        <ele>1404</ele>
        <time>2012-08-09T06:32:32Z</time>
      </trkpt>
      <trkpt lat="44.44542" lon="7.10318">
        <ele>1403</ele>
        <time>2012-08-09T06:32:42Z</time>
      </trkpt>
      <trkpt lat="44.44575" lon="7.10302">
        <ele>1408</ele>
        <time>2012-08-09T06:33:06Z</time>
      </trkpt>
      <trkpt lat="44.44586" lon="7.10285">
        <ele>1408</ele>
        <time>2012-08-09T06:34:08Z</time>
      </trkpt>
      <trkpt lat="44.44613" lon="7.10262">
        <ele>1407</ele>
        <time>2012-08-09T06:34:44Z</time>
      </trkpt>
      <trkpt lat="44.44619" lon="7.10261">
        <ele>1405</ele>
        <time>2012-08-09T06:34:46Z</time>
      </trkpt>
      <trkpt lat="44.4463" lon="7.10264">
        <ele>1404</ele>
        <time>2012-08-09T06:34:49Z</time>
      </trkpt>
      <trkpt lat="44.44647" lon="7.10283">
        <ele>1408</ele>
        <time>2012-08-09T06:34:57Z</time>
      </trkpt>
      <trkpt lat="44.44673" lon="7.10321">
        <ele>1408</ele>
        <time>2012-08-09T06:35:12Z</time>
      </trkpt>
      <trkpt lat="44.44693" lon="7.10384">
        <ele>1410</ele>
        <time>2012-08-09T06:35:32Z</time>
      </trkpt>
      <trkpt lat="44.44727" lon="7.10414">
        <ele>1413</ele>
        <time>2012-08-09T06:35:49Z</time>
      </trkpt>
      <trkpt lat="44.44787" lon="7.10464">
        <ele>1414</ele>
        <time>2012-08-09T06:36:14Z</time>
      </trkpt>
      <trkpt lat="44.44804" lon="7.10512">
        <ele>1413</ele>
        <time>2012-08-09T06:36:28Z</time>
      </trkpt>
      <trkpt lat="44.44826" lon="7.10503">
        <ele>1413</ele>
        <time>2012-08-09T06:36:34Z</time>
      </trkpt>
      <trkpt lat="44.44837" lon="7.10474">
        <ele>1414</ele>
        <time>2012-08-09T06:36:43Z</time>
      </trkpt>
      <trkpt lat="44.44844" lon="7.10454">
        <ele>1414</ele>
        <time>2012-08-09T06:36:49Z</time>
      </trkpt>
      <trkpt lat="44.4485" lon="7.10446">
        <ele>1414</ele>
        <time>2012-08-09T06:36:54Z</time>
      </trkpt>
      <trkpt lat="44.44853" lon="7.10444">
        <ele>1413</ele>
        <time>2012-08-09T06:36:57Z</time>
      </trkpt>
      <trkpt lat="44.44888" lon="7.10446">
        <ele>1416</ele>
        <time>2012-08-09T06:37:21Z</time>
      </trkpt>
      <trkpt lat="44.4501" lon="7.10405">
        <ele>1425</ele>
        <time>2012-08-09T06:38:21Z</time>
      </trkpt>
      <trkpt lat="44.45041" lon="7.10392">
        <ele>1425</ele>
        <time>2012-08-09T06:38:36Z</time>
      </trkpt>
      <trkpt lat="44.45063" lon="7.10404">
        <ele>1429</ele>
        <time>2012-08-09T06:38:47Z</time>
      </trkpt>
      <trkpt lat="44.44835" lon="7.10574">
        <ele>1448</ele>
        <time>2012-08-09T06:40:53Z</time>
      </trkpt>
      <trkpt lat="44.44813" lon="7.10614">
        <ele>1451</ele>
        <time>2012-08-09T06:41:11Z</time>
      </trkpt>
      <trkpt lat="44.44805" lon="7.10671">
        <ele>1454</ele>
        <time>2012-08-09T06:41:29Z</time>
      </trkpt>
      <trkpt lat="44.44799" lon="7.10717">
        <ele>1458</ele>
        <time>2012-08-09T06:41:46Z</time>
      </trkpt>
      <trkpt lat="44.44798" lon="7.10729">
        <ele>1457</ele>
        <time>2012-08-09T06:41:49Z</time>
      </trkpt>
      <trkpt lat="44.44792" lon="7.1078">
        <ele>1462</ele>
        <time>2012-08-09T06:42:07Z</time>
      </trkpt>
      <trkpt lat="44.44768" lon="7.10861">
        <ele>1466</ele>
        <time>2012-08-09T06:42:39Z</time>
      </trkpt>
      <trkpt lat="44.44712" lon="7.10957">
        <ele>1475</ele>
        <time>2012-08-09T06:43:27Z</time>
      </trkpt>
      <trkpt lat="44.44708" lon="7.1096">
        <ele>1474</ele>
        <time>2012-08-09T06:43:31Z</time>
      </trkpt>
      <trkpt lat="44.44694" lon="7.10959">
        <ele>1476</ele>
        <time>2012-08-09T06:43:39Z</time>
      </trkpt>
      <trkpt lat="44.44685" lon="7.10948">
        <ele>1477</ele>
        <time>2012-08-09T06:43:46Z</time>
      </trkpt>
      <trkpt lat="44.44644" lon="7.10834">
        <ele>1484</ele>
        <time>2012-08-09T06:44:32Z</time>
      </trkpt>
      <trkpt lat="44.4463" lon="7.10726">
        <ele>1490</ele>
        <time>2012-08-09T06:45:17Z</time>
      </trkpt>
      <trkpt lat="44.44607" lon="7.10668">
        <ele>1494</ele>
        <time>2012-08-09T06:45:41Z</time>
      </trkpt>
      <trkpt lat="44.44552" lon="7.10589">
        <ele>1500</ele>
        <time>2012-08-09T06:46:24Z</time>
      </trkpt>
      <trkpt lat="44.44509" lon="7.10576">
        <ele>1503</ele>
        <time>2012-08-09T06:46:49Z</time>
      </trkpt>
      <trkpt lat="44.44501" lon="7.1058">
        <ele>1503</ele>
        <time>2012-08-09T06:46:54Z</time>
      </trkpt>
      <trkpt lat="44.44494" lon="7.10584">
        <ele>1503</ele>
        <time>2012-08-09T06:46:59Z</time>
      </trkpt>
      <trkpt lat="44.44442" lon="7.1059">
        <ele>1507</ele>
        <time>2012-08-09T06:47:29Z</time>
      </trkpt>
      <trkpt lat="44.44436" lon="7.10589">
        <ele>1507</ele>
        <time>2012-08-09T06:47:34Z</time>
      </trkpt>
      <trkpt lat="44.4442" lon="7.10587">
        <ele>1510</ele>
        <time>2012-08-09T06:47:44Z</time>
      </trkpt>
      <trkpt lat="44.44399" lon="7.10589">
        <ele>1510</ele>
        <time>2012-08-09T06:47:56Z</time>
      </trkpt>
      <trkpt lat="44.44387" lon="7.10593">
        <ele>1511</ele>
        <time>2012-08-09T06:48:03Z</time>
      </trkpt>
      <trkpt lat="44.44381" lon="7.10597">
        <ele>1513</ele>
        <time>2012-08-09T06:48:07Z</time>
      </trkpt>
      <trkpt lat="44.44378" lon="7.10599">
        <ele>1512</ele>
        <time>2012-08-09T06:48:09Z</time>
      </trkpt>
      <trkpt lat="44.4437" lon="7.10606">
        <ele>1513</ele>
        <time>2012-08-09T06:48:14Z</time>
      </trkpt>
      <trkpt lat="44.44357" lon="7.10624">
        <ele>1515</ele>
        <time>2012-08-09T06:48:22Z</time>
      </trkpt>
      <trkpt lat="44.44354" lon="7.10629">
        <ele>1514</ele>
        <time>2012-08-09T06:48:24Z</time>
      </trkpt>
      <trkpt lat="44.44352" lon="7.10633">
        <ele>1514</ele>
        <time>2012-08-09T06:48:26Z</time>
      </trkpt>
      <trkpt lat="44.44313" lon="7.10664">
        <ele>1518</ele>
        <time>2012-08-09T06:48:52Z</time>
      </trkpt>
      <trkpt lat="44.44291" lon="7.10573">
        <ele>1525</ele>
        <time>2012-08-09T06:49:32Z</time>
      </trkpt>
      <trkpt lat="44.44272" lon="7.10532">
        <ele>1528</ele>
        <time>2012-08-09T06:49:54Z</time>
      </trkpt>
      <trkpt lat="44.44255" lon="7.10522">
        <ele>1531</ele>
        <time>2012-08-09T06:50:06Z</time>
      </trkpt>
      <trkpt lat="44.44174" lon="7.10497">
        <ele>1536</ele>
        <time>2012-08-09T06:50:52Z</time>
      </trkpt>
      <trkpt lat="44.44136" lon="7.10446">
        <ele>1542</ele>
        <time>2012-08-09T06:51:23Z</time>
      </trkpt>
      <trkpt lat="44.44125" lon="7.10433">
        <ele>1542</ele>
        <time>2012-08-09T06:51:31Z</time>
      </trkpt>
      <trkpt lat="44.43953" lon="7.10405">
        <ele>1560</ele>
        <time>2012-08-09T06:53:08Z</time>
      </trkpt>
      <trkpt lat="44.43852" lon="7.10388">
        <ele>1568</ele>
        <time>2012-08-09T06:54:06Z</time>
      </trkpt>
      <trkpt lat="44.4373" lon="7.10329">
        <ele>1579</ele>
        <time>2012-08-09T06:55:19Z</time>
      </trkpt>
      <trkpt lat="44.43689" lon="7.10314">
        <ele>1581</ele>
        <time>2012-08-09T06:55:44Z</time>
      </trkpt>
      <trkpt lat="44.43599" lon="7.10307">
        <ele>1589</ele>
        <time>2012-08-09T06:56:34Z</time>
      </trkpt>
      <trkpt lat="44.43485" lon="7.10322">
        <ele>1595</ele>
        <time>2012-08-09T06:57:34Z</time>
      </trkpt>
      <trkpt lat="44.43412" lon="7.10338">
        <ele>1603</ele>
        <time>2012-08-09T06:58:14Z</time>
      </trkpt>
      <trkpt lat="44.43304" lon="7.1037">
        <ele>1608</ele>
        <time>2012-08-09T06:59:09Z</time>
      </trkpt>
      <trkpt lat="44.43276" lon="7.10375">
        <ele>1610</ele>
        <time>2012-08-09T06:59:24Z</time>
      </trkpt>
      <trkpt lat="44.43261" lon="7.1038">
        <ele>1610</ele>
        <time>2012-08-09T06:59:32Z</time>
      </trkpt>
      <trkpt lat="44.43238" lon="7.10358">
        <ele>1612</ele>
        <time>2012-08-09T06:59:44Z</time>
      </trkpt>
      <trkpt lat="44.43229" lon="7.10333">
        <ele>1610</ele>
        <time>2012-08-09T06:59:51Z</time>
      </trkpt>
      <trkpt lat="44.43212" lon="7.10305">
        <ele>1611</ele>
        <time>2012-08-09T07:00:01Z</time>
      </trkpt>
      <trkpt lat="44.43177" lon="7.10283">
        <ele>1613</ele>
        <time>2012-08-09T07:00:14Z</time>
      </trkpt>
      <trkpt lat="44.43142" lon="7.10283">
        <ele>1615</ele>
        <time>2012-08-09T07:00:28Z</time>
      </trkpt>
      <trkpt lat="44.43135" lon="7.10284">
        <ele>1614</ele>
        <time>2012-08-09T07:00:32Z</time>
      </trkpt>
      <trkpt lat="44.43133" lon="7.10283">
        <ele>1615</ele>
        <time>2012-08-09T07:00:34Z</time>
      </trkpt>
      <trkpt lat="44.4308" lon="7.10342">
        <ele>1622</ele>
        <time>2012-08-09T07:01:16Z</time>
      </trkpt>
      <trkpt lat="44.43039" lon="7.10305">
        <ele>1625</ele>
        <time>2012-08-09T07:01:41Z</time>
      </trkpt>
      <trkpt lat="44.42992" lon="7.10273">
        <ele>1627</ele>
        <time>2012-08-09T07:02:08Z</time>
      </trkpt>
      <trkpt lat="44.42921" lon="7.10262">
        <ele>1632</ele>
        <time>2012-08-09T07:02:42Z</time>
      </trkpt>
      <trkpt lat="44.42918" lon="7.10262">
        <ele>1631</ele>
        <time>2012-08-09T07:02:43Z</time>
      </trkpt>
      <trkpt lat="44.42865" lon="7.10292">
        <ele>1633</ele>
        <time>2012-08-09T07:03:11Z</time>
      </trkpt>
      <trkpt lat="44.42844" lon="7.10236">
        <ele>1638</ele>
        <time>2012-08-09T07:03:36Z</time>
      </trkpt>
      <trkpt lat="44.4278" lon="7.10174">
        <ele>1641</ele>
        <time>2012-08-09T07:04:16Z</time>
      </trkpt>
      <trkpt lat="44.42775" lon="7.10173">
        <ele>1642</ele>
        <time>2012-08-09T07:04:18Z</time>
      </trkpt>
      <trkpt lat="44.42644" lon="7.10268">
        <ele>1651</ele>
        <time>2012-08-09T07:05:37Z</time>
      </trkpt>
      <trkpt lat="44.42473" lon="7.10232">
        <ele>1668</ele>
        <time>2012-08-09T07:07:21Z</time>
      </trkpt>
      <trkpt lat="44.42466" lon="7.10232">
        <ele>1667</ele>
        <time>2012-08-09T07:07:24Z</time>
      </trkpt>
      <trkpt lat="44.42467" lon="7.10254">
        <ele>1668</ele>
        <time>2012-08-09T07:07:34Z</time>
      </trkpt>
      <trkpt lat="44.42496" lon="7.10262">
        <ele>1670</ele>
        <time>2012-08-09T07:07:47Z</time>
      </trkpt>
      <trkpt lat="44.42514" lon="7.10264">
        <ele>1670</ele>
        <time>2012-08-09T07:07:56Z</time>
      </trkpt>
      <trkpt lat="44.42518" lon="7.10266">
        <ele>1671</ele>
        <time>2012-08-09T07:07:59Z</time>
      </trkpt>
      <trkpt lat="44.42562" lon="7.1027">
        <ele>1673</ele>
        <time>2012-08-09T07:08:18Z</time>
      </trkpt>
      <trkpt lat="44.42577" lon="7.10289">
        <ele>1674</ele>
        <time>2012-08-09T07:08:31Z</time>
      </trkpt>
      <trkpt lat="44.42435" lon="7.10288">
        <ele>1690</ele>
        <time>2012-08-09T07:09:58Z</time>
      </trkpt>
      <trkpt lat="44.42392" lon="7.10279">
        <ele>1693</ele>
        <time>2012-08-09T07:10:26Z</time>
      </trkpt>
      <trkpt lat="44.42335" lon="7.10311">
        <ele>1701</ele>
        <time>2012-08-09T07:11:04Z</time>
      </trkpt>
      <trkpt lat="44.42334" lon="7.1031">
        <ele>1703</ele>
        <time>2012-08-09T07:11:06Z</time>
      </trkpt>
      <trkpt lat="44.42332" lon="7.10309">
        <ele>1703</ele>
        <time>2012-08-09T07:11:09Z</time>
      </trkpt>
      <trkpt lat="44.42323" lon="7.10308">
        <ele>1704</ele>
        <time>2012-08-09T07:11:14Z</time>
      </trkpt>
      <trkpt lat="44.42318" lon="7.10309">
        <ele>1707</ele>
        <time>2012-08-09T07:11:19Z</time>
      </trkpt>
      <trkpt lat="44.42309" lon="7.10308">
        <ele>1710</ele>
        <time>2012-08-09T07:11:27Z</time>
      </trkpt>
      <trkpt lat="44.42303" lon="7.10305">
        <ele>1709</ele>
        <time>2012-08-09T07:11:31Z</time>
      </trkpt>
      <trkpt lat="44.42289" lon="7.10307">
        <ele>1713</ele>
        <time>2012-08-09T07:11:44Z</time>
      </trkpt>
      <trkpt lat="44.42286" lon="7.10307">
        <ele>1713</ele>
        <time>2012-08-09T07:11:46Z</time>
      </trkpt>
      <trkpt lat="44.42287" lon="7.10324">
        <ele>1715</ele>
        <time>2012-08-09T07:11:59Z</time>
      </trkpt>
      <trkpt lat="44.42295" lon="7.10327">
        <ele>1717</ele>
        <time>2012-08-09T07:12:06Z</time>
      </trkpt>
      <trkpt lat="44.42325" lon="7.10343">
        <ele>1722</ele>
        <time>2012-08-09T07:12:31Z</time>
      </trkpt>
      <trkpt lat="44.42355" lon="7.10364">
        <ele>1725</ele>
        <time>2012-08-09T07:12:51Z</time>
      </trkpt>
      <trkpt lat="44.4236" lon="7.10366">
        <ele>1723</ele>
        <time>2012-08-09T07:12:53Z</time>
      </trkpt>
      <trkpt lat="44.42402" lon="7.10376">
        <ele>1728</ele>
        <time>2012-08-09T07:13:19Z</time>
      </trkpt>
      <trkpt lat="44.42369" lon="7.10394">
        <ele>1731</ele>
        <time>2012-08-09T07:13:41Z</time>
      </trkpt>
      <trkpt lat="44.42354" lon="7.10391">
        <ele>1731</ele>
        <time>2012-08-09T07:13:49Z</time>
      </trkpt>
      <trkpt lat="44.42346" lon="7.10392">
        <ele>1734</ele>
        <time>2012-08-09T07:13:54Z</time>
      </trkpt>
      <trkpt lat="44.42344" lon="7.10391">
        <ele>1734</ele>
        <time>2012-08-09T07:13:56Z</time>
      </trkpt>
      <trkpt lat="44.42293" lon="7.1041">
        <ele>1738</ele>
        <time>2012-08-09T07:14:31Z</time>
      </trkpt>
      <trkpt lat="44.42228" lon="7.10398">
        <ele>1749</ele>
        <time>2012-08-09T07:15:41Z</time>
      </trkpt>
      <trkpt lat="44.4219" lon="7.10393">
        <ele>1751</ele>
        <time>2012-08-09T07:16:02Z</time>
      </trkpt>
      <trkpt lat="44.4215" lon="7.10322">
        <ele>1757</ele>
        <time>2012-08-09T07:16:37Z</time>
      </trkpt>
      <trkpt lat="44.42114" lon="7.1029">
        <ele>1760</ele>
        <time>2012-08-09T07:16:58Z</time>
      </trkpt>
      <trkpt lat="44.42111" lon="7.10251">
        <ele>1763</ele>
        <time>2012-08-09T07:17:14Z</time>
      </trkpt>
      <trkpt lat="44.42086" lon="7.1024">
        <ele>1766</ele>
        <time>2012-08-09T07:17:30Z</time>
      </trkpt>
      <trkpt lat="44.4208" lon="7.10249">
        <ele>1765</ele>
        <time>2012-08-09T07:17:34Z</time>
      </trkpt>
      <trkpt lat="44.42074" lon="7.10257">
        <ele>1768</ele>
        <time>2012-08-09T07:17:39Z</time>
      </trkpt>
      <trkpt lat="44.42064" lon="7.10275">
        <ele>1769</ele>
        <time>2012-08-09T07:17:48Z</time>
      </trkpt>
      <trkpt lat="44.42057" lon="7.10281">
        <ele>1771</ele>
        <time>2012-08-09T07:17:53Z</time>
      </trkpt>
      <trkpt lat="44.42046" lon="7.10286">
        <ele>1772</ele>
        <time>2012-08-09T07:17:59Z</time>
      </trkpt>
      <trkpt lat="44.41993" lon="7.10268">
        <ele>1775</ele>
        <time>2012-08-09T07:18:29Z</time>
      </trkpt>
      <trkpt lat="44.41985" lon="7.10267">
        <ele>1775</ele>
        <time>2012-08-09T07:18:34Z</time>
      </trkpt>
      <trkpt lat="44.41978" lon="7.10265">
        <ele>1777</ele>
        <time>2012-08-09T07:18:39Z</time>
      </trkpt>
      <trkpt lat="44.41966" lon="7.10267">
        <ele>1778</ele>
        <time>2012-08-09T07:18:48Z</time>
      </trkpt>
      <trkpt lat="44.41967" lon="7.10284">
        <ele>1780</ele>
        <time>2012-08-09T07:18:57Z</time>
      </trkpt>
      <trkpt lat="44.41989" lon="7.10286">
        <ele>1781</ele>
        <time>2012-08-09T07:19:06Z</time>
      </trkpt>
      <trkpt lat="44.42042" lon="7.10319">
        <ele>1789</ele>
        <time>2012-08-09T07:19:46Z</time>
      </trkpt>
      <trkpt lat="44.42067" lon="7.10323">
        <ele>1790</ele>
        <time>2012-08-09T07:20:02Z</time>
      </trkpt>
      <trkpt lat="44.4204" lon="7.10333">
        <ele>1794</ele>
        <time>2012-08-09T07:20:22Z</time>
      </trkpt>
      <trkpt lat="44.42029" lon="7.10332">
        <ele>1795</ele>
        <time>2012-08-09T07:20:29Z</time>
      </trkpt>
      <trkpt lat="44.41981" lon="7.1033">
        <ele>1798</ele>
        <time>2012-08-09T07:20:57Z</time>
      </trkpt>
      <trkpt lat="44.4197" lon="7.10334">
        <ele>1800</ele>
        <time>2012-08-09T07:21:06Z</time>
      </trkpt>
      <trkpt lat="44.41929" lon="7.10347">
        <ele>1806</ele>
        <time>2012-08-09T07:21:37Z</time>
      </trkpt>
      <trkpt lat="44.4179" lon="7.1034">
        <ele>1819</ele>
        <time>2012-08-09T07:23:11Z</time>
      </trkpt>
      <trkpt lat="44.41789" lon="7.10359">
        <ele>1820</ele>
        <time>2012-08-09T07:23:21Z</time>
      </trkpt>
      <trkpt lat="44.41832" lon="7.10376">
        <ele>1823</ele>
        <time>2012-08-09T07:23:44Z</time>
      </trkpt>
      <trkpt lat="44.41836" lon="7.10382">
        <ele>1823</ele>
        <time>2012-08-09T07:23:49Z</time>
      </trkpt>
      <trkpt lat="44.41854" lon="7.10397">
        <ele>1826</ele>
        <time>2012-08-09T07:24:03Z</time>
      </trkpt>
      <trkpt lat="44.41844" lon="7.10413">
        <ele>1827</ele>
        <time>2012-08-09T07:24:12Z</time>
      </trkpt>
      <trkpt lat="44.41752" lon="7.10413">
        <ele>1837</ele>
        <time>2012-08-09T07:25:08Z</time>
      </trkpt>
      <trkpt lat="44.41747" lon="7.10412">
        <ele>1836</ele>
        <time>2012-08-09T07:25:12Z</time>
      </trkpt>
      <trkpt lat="44.41739" lon="7.10409">
        <ele>1838</ele>
        <time>2012-08-09T07:25:18Z</time>
      </trkpt>
      <trkpt lat="44.41729" lon="7.10404">
        <ele>1839</ele>
        <time>2012-08-09T07:25:26Z</time>
      </trkpt>
      <trkpt lat="44.41717" lon="7.104">
        <ele>1840</ele>
        <time>2012-08-09T07:25:34Z</time>
      </trkpt>
      <trkpt lat="44.41706" lon="7.10394">
        <ele>1841</ele>
        <time>2012-08-09T07:25:41Z</time>
      </trkpt>
      <trkpt lat="44.41697" lon="7.10368">
        <ele>1844</ele>
        <time>2012-08-09T07:25:56Z</time>
      </trkpt>
      <trkpt lat="44.41689" lon="7.10358">
        <ele>1844</ele>
        <time>2012-08-09T07:26:04Z</time>
      </trkpt>
      <trkpt lat="44.41695" lon="7.10404">
        <ele>1850</ele>
        <time>2012-08-09T07:26:28Z</time>
      </trkpt>
      <trkpt lat="44.41699" lon="7.10412">
        <ele>1849</ele>
        <time>2012-08-09T07:26:31Z</time>
      </trkpt>
      <trkpt lat="44.41703" lon="7.10418">
        <ele>1849</ele>
        <time>2012-08-09T07:26:33Z</time>
      </trkpt>
      <trkpt lat="44.41742" lon="7.10457">
        <ele>1850</ele>
        <time>2012-08-09T07:26:58Z</time>
      </trkpt>
      <trkpt lat="44.41763" lon="7.1046">
        <ele>1855</ele>
        <time>2012-08-09T07:27:12Z</time>
      </trkpt>
      <trkpt lat="44.41786" lon="7.1047">
        <ele>1857</ele>
        <time>2012-08-09T07:27:26Z</time>
      </trkpt>
      <trkpt lat="44.41808" lon="7.10477">
        <ele>1858</ele>
        <time>2012-08-09T07:27:41Z</time>
      </trkpt>
      <trkpt lat="44.41879" lon="7.10485">
        <ele>1868</ele>
        <time>2012-08-09T07:28:26Z</time>
      </trkpt>
      <trkpt lat="44.41918" lon="7.10494">
        <ele>1870</ele>
        <time>2012-08-09T07:28:51Z</time>
      </trkpt>
      <trkpt lat="44.41924" lon="7.10493">
        <ele>1872</ele>
        <time>2012-08-09T07:28:54Z</time>
      </trkpt>
      <trkpt lat="44.4193" lon="7.10492">
        <ele>1872</ele>
        <time>2012-08-09T07:28:58Z</time>
      </trkpt>
      <trkpt lat="44.41938" lon="7.10489">
        <ele>1872</ele>
        <time>2012-08-09T07:29:02Z</time>
      </trkpt>
      <trkpt lat="44.41954" lon="7.10488">
        <ele>1874</ele>
        <time>2012-08-09T07:29:12Z</time>
      </trkpt>
      <trkpt lat="44.42009" lon="7.10536">
        <ele>1880</ele>
        <time>2012-08-09T07:29:56Z</time>
      </trkpt>
      <trkpt lat="44.42011" lon="7.10573">
        <ele>1884</ele>
        <time>2012-08-09T07:30:16Z</time>
      </trkpt>
      <trkpt lat="44.41903" lon="7.10577">
        <ele>1894</ele>
        <time>2012-08-09T07:31:24Z</time>
      </trkpt>
      <trkpt lat="44.41881" lon="7.10598">
        <ele>1898</ele>
        <time>2012-08-09T07:31:41Z</time>
      </trkpt>
      <trkpt lat="44.41834" lon="7.10645">
        <ele>1901</ele>
        <time>2012-08-09T07:32:13Z</time>
      </trkpt>
      <trkpt lat="44.41823" lon="7.10644">
        <ele>1901</ele>
        <time>2012-08-09T07:32:18Z</time>
      </trkpt>
      <trkpt lat="44.41672" lon="7.1065">
        <ele>1914</ele>
        <time>2012-08-09T07:33:49Z</time>
      </trkpt>
      <trkpt lat="44.41586" lon="7.10509">
        <ele>1926</ele>
        <time>2012-08-09T07:35:06Z</time>
      </trkpt>
      <trkpt lat="44.4152" lon="7.10446">
        <ele>1936</ele>
        <time>2012-08-09T07:35:58Z</time>
      </trkpt>
      <trkpt lat="44.41508" lon="7.1044">
        <ele>1936</ele>
        <time>2012-08-09T07:36:04Z</time>
      </trkpt>
      <trkpt lat="44.41503" lon="7.10453">
        <ele>1939</ele>
        <time>2012-08-09T07:36:12Z</time>
      </trkpt>
      <trkpt lat="44.41499" lon="7.10481">
        <ele>1939</ele>
        <time>2012-08-09T07:36:22Z</time>
      </trkpt>
      <trkpt lat="44.41466" lon="7.10557">
        <ele>1945</ele>
        <time>2012-08-09T07:36:56Z</time>
      </trkpt>
      <trkpt lat="44.41432" lon="7.1061">
        <ele>1948</ele>
        <time>2012-08-09T07:37:22Z</time>
      </trkpt>
      <trkpt lat="44.41403" lon="7.1063">
        <ele>1948</ele>
        <time>2012-08-09T07:37:38Z</time>
      </trkpt>
      <trkpt lat="44.41363" lon="7.1065">
        <ele>1953</ele>
        <time>2012-08-09T07:37:59Z</time>
      </trkpt>
      <trkpt lat="44.41318" lon="7.10662">
        <ele>1955</ele>
        <time>2012-08-09T07:38:22Z</time>
      </trkpt>
      <trkpt lat="44.41298" lon="7.10715">
        <ele>1956</ele>
        <time>2012-08-09T07:38:41Z</time>
      </trkpt>
      <trkpt lat="44.41275" lon="7.1074">
        <ele>1958</ele>
        <time>2012-08-09T07:38:52Z</time>
      </trkpt>
      <trkpt lat="44.41269" lon="7.10751">
        <ele>1958</ele>
        <time>2012-08-09T07:38:56Z</time>
      </trkpt>
      <trkpt lat="44.41255" lon="7.10812">
        <ele>1961</ele>
        <time>2012-08-09T07:39:14Z</time>
      </trkpt>
      <trkpt lat="44.41248" lon="7.10831">
        <ele>1961</ele>
        <time>2012-08-09T07:39:21Z</time>
      </trkpt>
      <trkpt lat="44.41258" lon="7.10927">
        <ele>1965</ele>
        <time>2012-08-09T07:39:51Z</time>
      </trkpt>
      <trkpt lat="44.41252" lon="7.1094">
        <ele>1965</ele>
        <time>2012-08-09T07:39:56Z</time>
      </trkpt>
      <trkpt lat="44.41193" lon="7.10974">
        <ele>1968</ele>
        <time>2012-08-09T07:40:22Z</time>
      </trkpt>
      <trkpt lat="44.41178" lon="7.10976">
        <ele>1968</ele>
        <time>2012-08-09T07:40:29Z</time>
      </trkpt>
      <trkpt lat="44.41139" lon="7.10969">
        <ele>1972</ele>
        <time>2012-08-09T07:40:48Z</time>
      </trkpt>
      <trkpt lat="44.41128" lon="7.10976">
        <ele>1972</ele>
        <time>2012-08-09T07:40:54Z</time>
      </trkpt>
      <trkpt lat="44.41121" lon="7.1098">
        <ele>1974</ele>
        <time>2012-08-09T07:40:58Z</time>
      </trkpt>
      <trkpt lat="44.41119" lon="7.10981">
        <ele>1974</ele>
        <time>2012-08-09T07:40:59Z</time>
      </trkpt>
      <trkpt lat="44.41045" lon="7.11006">
        <ele>1980</ele>
        <time>2012-08-09T07:41:39Z</time>
      </trkpt>
      <trkpt lat="44.41026" lon="7.11008">
        <ele>1980</ele>
        <time>2012-08-09T07:41:49Z</time>
      </trkpt>
      <trkpt lat="44.40975" lon="7.10975">
        <ele>1985</ele>
        <time>2012-08-09T07:42:17Z</time>
      </trkpt>
      <trkpt lat="44.40966" lon="7.10951">
        <ele>1985</ele>
        <time>2012-08-09T07:42:27Z</time>
      </trkpt>
      <trkpt lat="44.40964" lon="7.10946">
        <ele>1986</ele>
        <time>2012-08-09T07:42:29Z</time>
      </trkpt>
      <trkpt lat="44.40924" lon="7.10904">
        <ele>1988</ele>
        <time>2012-08-09T07:42:56Z</time>
      </trkpt>
      <trkpt lat="44.40908" lon="7.10869">
        <ele>1993</ele>
        <time>2012-08-09T07:43:11Z</time>
      </trkpt>
      <trkpt lat="44.40903" lon="7.10861">
        <ele>1991</ele>
        <time>2012-08-09T07:43:14Z</time>
      </trkpt>
      <trkpt lat="44.40796" lon="7.10822">
        <ele>2003</ele>
        <time>2012-08-09T07:44:14Z</time>
      </trkpt>
      <trkpt lat="44.40772" lon="7.10826">
        <ele>2006</ele>
        <time>2012-08-09T07:44:27Z</time>
      </trkpt>
      <trkpt lat="44.40768" lon="7.10827">
        <ele>2005</ele>
        <time>2012-08-09T07:44:29Z</time>
      </trkpt>
      <trkpt lat="44.40733" lon="7.10829">
        <ele>2009</ele>
        <time>2012-08-09T07:44:47Z</time>
      </trkpt>
      <trkpt lat="44.40682" lon="7.10836">
        <ele>2014</ele>
        <time>2012-08-09T07:45:14Z</time>
      </trkpt>
      <trkpt lat="44.40641" lon="7.10833">
        <ele>2017</ele>
        <time>2012-08-09T07:45:38Z</time>
      </trkpt>
      <trkpt lat="44.40612" lon="7.10771">
        <ele>2021</ele>
        <time>2012-08-09T07:46:04Z</time>
      </trkpt>
      <trkpt lat="44.40588" lon="7.10754">
        <ele>2025</ele>
        <time>2012-08-09T07:46:17Z</time>
      </trkpt>
      <trkpt lat="44.40579" lon="7.10742">
        <ele>2025</ele>
        <time>2012-08-09T07:46:24Z</time>
      </trkpt>
      <trkpt lat="44.40559" lon="7.10746">
        <ele>2028</ele>
        <time>2012-08-09T07:46:36Z</time>
      </trkpt>
      <trkpt lat="44.40524" lon="7.10754">
        <ele>2030</ele>
        <time>2012-08-09T07:46:54Z</time>
      </trkpt>
      <trkpt lat="44.40391" lon="7.10755">
        <ele>2045</ele>
        <time>2012-08-09T07:48:08Z</time>
      </trkpt>
      <trkpt lat="44.4036" lon="7.10747">
        <ele>2047</ele>
        <time>2012-08-09T07:48:27Z</time>
      </trkpt>
      <trkpt lat="44.40323" lon="7.107">
        <ele>2052</ele>
        <time>2012-08-09T07:48:56Z</time>
      </trkpt>
      <trkpt lat="44.40318" lon="7.10667">
        <ele>2055</ele>
        <time>2012-08-09T07:49:09Z</time>
      </trkpt>
      <trkpt lat="44.40311" lon="7.10589">
        <ele>2061</ele>
        <time>2012-08-09T07:49:41Z</time>
      </trkpt>
      <trkpt lat="44.403" lon="7.10563">
        <ele>2062</ele>
        <time>2012-08-09T07:49:51Z</time>
      </trkpt>
      <trkpt lat="44.40274" lon="7.10549">
        <ele>2065</ele>
        <time>2012-08-09T07:50:06Z</time>
      </trkpt>
      <trkpt lat="44.40267" lon="7.10548">
        <ele>2065</ele>
        <time>2012-08-09T07:50:09Z</time>
      </trkpt>
      <trkpt lat="44.40255" lon="7.10547">
        <ele>2067</ele>
        <time>2012-08-09T07:50:16Z</time>
      </trkpt>
      <trkpt lat="44.40217" lon="7.1055">
        <ele>2067</ele>
        <time>2012-08-09T07:50:34Z</time>
      </trkpt>
      <trkpt lat="44.40189" lon="7.10558">
        <ele>2070</ele>
        <time>2012-08-09T07:50:48Z</time>
      </trkpt>
      <trkpt lat="44.40182" lon="7.10559">
        <ele>2071</ele>
        <time>2012-08-09T07:50:51Z</time>
      </trkpt>
      <trkpt lat="44.40171" lon="7.10559">
        <ele>2071</ele>
        <time>2012-08-09T07:50:54Z</time>
      </trkpt>
      <trkpt lat="44.40167" lon="7.10559">
        <ele>2071</ele>
        <time>2012-08-09T07:50:56Z</time>
      </trkpt>
      <trkpt lat="44.40159" lon="7.10559">
        <ele>2071</ele>
        <time>2012-08-09T07:51:01Z</time>
      </trkpt>
      <trkpt lat="44.40061" lon="7.10581">
        <ele>2079</ele>
        <time>2012-08-09T07:51:47Z</time>
      </trkpt>
      <trkpt lat="44.40035" lon="7.10616">
        <ele>2081</ele>
        <time>2012-08-09T07:52:04Z</time>
      </trkpt>
      <trkpt lat="44.39993" lon="7.10621">
        <ele>2085</ele>
        <time>2012-08-09T07:52:26Z</time>
      </trkpt>
      <trkpt lat="44.39984" lon="7.10638">
        <ele>2086</ele>
        <time>2012-08-09T07:52:34Z</time>
      </trkpt>
      <trkpt lat="44.39948" lon="7.10659">
        <ele>2089</ele>
        <time>2012-08-09T07:52:53Z</time>
      </trkpt>
      <trkpt lat="44.39894" lon="7.1068">
        <ele>2089</ele>
        <time>2012-08-09T07:53:16Z</time>
      </trkpt>
      <trkpt lat="44.39849" lon="7.10721">
        <ele>2094</ele>
        <time>2012-08-09T07:53:39Z</time>
      </trkpt>
      <trkpt lat="44.39818" lon="7.10728">
        <ele>2095</ele>
        <time>2012-08-09T07:53:57Z</time>
      </trkpt>
      <trkpt lat="44.39803" lon="7.10754">
        <ele>2096</ele>
        <time>2012-08-09T07:54:27Z</time>
      </trkpt>
      <trkpt lat="44.39813" lon="7.10755">
        <ele>2096</ele>
        <time>2012-08-09T07:55:07Z</time>
      </trkpt>
      <trkpt lat="44.39816" lon="7.10756">
        <ele>2094</ele>
        <time>2012-08-09T07:55:57Z</time>
      </trkpt>
      <trkpt lat="44.39816" lon="7.10761">
        <ele>2094</ele>
        <time>2012-08-09T07:55:59Z</time>
      </trkpt>
      <trkpt lat="44.3981" lon="7.10756">
        <ele>2095</ele>
        <time>2012-08-09T07:56:06Z</time>
      </trkpt>
      <trkpt lat="44.39812" lon="7.10731">
        <ele>2095</ele>
        <time>2012-08-09T07:59:21Z</time>
      </trkpt>
      <trkpt lat="44.39806" lon="7.10751">
        <ele>2096</ele>
        <time>2012-08-09T08:00:01Z</time>
      </trkpt>
      <trkpt lat="44.39805" lon="7.10753">
        <ele>2094</ele>
        <time>2012-08-09T08:00:03Z</time>
      </trkpt>
      <trkpt lat="44.39798" lon="7.10751">
        <ele>2095</ele>
        <time>2012-08-09T08:00:31Z</time>
      </trkpt>
      <trkpt lat="44.39795" lon="7.10751">
        <ele>2095</ele>
        <time>2012-08-09T08:00:33Z</time>
      </trkpt>
      <trkpt lat="44.39789" lon="7.10749">
        <ele>2098</ele>
        <time>2012-08-09T08:00:38Z</time>
      </trkpt>
      <trkpt lat="44.3978" lon="7.10744">
        <ele>2097</ele>
        <time>2012-08-09T08:00:46Z</time>
      </trkpt>
      <trkpt lat="44.39737" lon="7.1069">
        <ele>2104</ele>
        <time>2012-08-09T08:01:35Z</time>
      </trkpt>
      <trkpt lat="44.39752" lon="7.10653">
        <ele>2109</ele>
        <time>2012-08-09T08:02:01Z</time>
      </trkpt>
      <trkpt lat="44.39756" lon="7.10648">
        <ele>2108</ele>
        <time>2012-08-09T08:02:04Z</time>
      </trkpt>
      <trkpt lat="44.39774" lon="7.10632">
        <ele>2110</ele>
        <time>2012-08-09T08:02:22Z</time>
      </trkpt>
      <trkpt lat="44.39805" lon="7.10641">
        <ele>2113</ele>
        <time>2012-08-09T08:02:46Z</time>
      </trkpt>
      <trkpt lat="44.39822" lon="7.10647">
        <ele>2116</ele>
        <time>2012-08-09T08:03:01Z</time>
      </trkpt>
      <trkpt lat="44.39857" lon="7.10634">
        <ele>2119</ele>
        <time>2012-08-09T08:03:29Z</time>
      </trkpt>
      <trkpt lat="44.39862" lon="7.1063">
        <ele>2120</ele>
        <time>2012-08-09T08:03:34Z</time>
      </trkpt>
      <trkpt lat="44.39863" lon="7.10628">
        <ele>2119</ele>
        <time>2012-08-09T08:03:36Z</time>
      </trkpt>
      <trkpt lat="44.3987" lon="7.10612">
        <ele>2121</ele>
        <time>2012-08-09T08:03:50Z</time>
      </trkpt>
      <trkpt lat="44.39864" lon="7.10608">
        <ele>2123</ele>
        <time>2012-08-09T08:03:54Z</time>
      </trkpt>
      <trkpt lat="44.39841" lon="7.1062">
        <ele>2123</ele>
        <time>2012-08-09T08:04:13Z</time>
      </trkpt>
      <trkpt lat="44.39806" lon="7.10598">
        <ele>2128</ele>
        <time>2012-08-09T08:04:41Z</time>
      </trkpt>
      <trkpt lat="44.39754" lon="7.10581">
        <ele>2131</ele>
        <time>2012-08-09T08:05:16Z</time>
      </trkpt>
      <trkpt lat="44.3971" lon="7.1061">
        <ele>2136</ele>
        <time>2012-08-09T08:05:47Z</time>
      </trkpt>
      <trkpt lat="44.39679" lon="7.10604">
        <ele>2137</ele>
        <time>2012-08-09T08:06:09Z</time>
      </trkpt>
      <trkpt lat="44.39662" lon="7.10579">
        <ele>2141</ele>
        <time>2012-08-09T08:06:22Z</time>
      </trkpt>
      <trkpt lat="44.39648" lon="7.10569">
        <ele>2141</ele>
        <time>2012-08-09T08:06:32Z</time>
      </trkpt>
      <trkpt lat="44.39624" lon="7.10554">
        <ele>2142</ele>
        <time>2012-08-09T08:06:48Z</time>
      </trkpt>
      <trkpt lat="44.39611" lon="7.10531">
        <ele>2144</ele>
        <time>2012-08-09T08:07:01Z</time>
      </trkpt>
      <trkpt lat="44.39624" lon="7.10509">
        <ele>2145</ele>
        <time>2012-08-09T08:07:15Z</time>
      </trkpt>
      <trkpt lat="44.39643" lon="7.10524">
        <ele>2149</ele>
        <time>2012-08-09T08:07:26Z</time>
      </trkpt>
      <trkpt lat="44.39652" lon="7.10539">
        <ele>2150</ele>
        <time>2012-08-09T08:07:36Z</time>
      </trkpt>
      <trkpt lat="44.39687" lon="7.10545">
        <ele>2152</ele>
        <time>2012-08-09T08:07:59Z</time>
      </trkpt>
      <trkpt lat="44.39703" lon="7.10526">
        <ele>2155</ele>
        <time>2012-08-09T08:08:14Z</time>
      </trkpt>
      <trkpt lat="44.39733" lon="7.10491">
        <ele>2159</ele>
        <time>2012-08-09T08:08:41Z</time>
      </trkpt>
      <trkpt lat="44.39771" lon="7.1048">
        <ele>2164</ele>
        <time>2012-08-09T08:09:06Z</time>
      </trkpt>
      <trkpt lat="44.39796" lon="7.10442">
        <ele>2168</ele>
        <time>2012-08-09T08:09:32Z</time>
      </trkpt>
      <trkpt lat="44.39838" lon="7.10432">
        <ele>2180.2</ele>
        <time>2012-08-09T08:10:01Z</time>
      </trkpt>
      <trkpt lat="44.39862" lon="7.10448">
        <ele>2176</ele>
        <time>2012-08-09T08:10:20Z</time>
      </trkpt>
      <trkpt lat="44.39889" lon="7.1044">
        <ele>2177</ele>
        <time>2012-08-09T08:10:38Z</time>
      </trkpt>
      <trkpt lat="44.39893" lon="7.10437">
        <ele>2175</ele>
        <time>2012-08-09T08:10:41Z</time>
      </trkpt>
      <trkpt lat="44.39895" lon="7.10434">
        <ele>2177</ele>
        <time>2012-08-09T08:10:44Z</time>
      </trkpt>
      <trkpt lat="44.39897" lon="7.10433">
        <ele>2177</ele>
        <time>2012-08-09T08:10:46Z</time>
      </trkpt>
      <trkpt lat="44.39906" lon="7.10432">
        <ele>2180</ele>
        <time>2012-08-09T08:11:56Z</time>
      </trkpt>
      <trkpt lat="44.39915" lon="7.10425">
        <ele>2179</ele>
        <time>2012-08-09T08:12:03Z</time>
      </trkpt>
      <trkpt lat="44.39926" lon="7.10407">
        <ele>2189.5</ele>
        <time>2012-08-09T08:12:14Z</time>
      </trkpt>
      <trkpt lat="44.39932" lon="7.10397">
        <ele>2181</ele>
        <time>2012-08-09T08:12:21Z</time>
      </trkpt>
      <trkpt lat="44.39933" lon="7.10386">
        <ele>2181</ele>
        <time>2012-08-09T08:12:24Z</time>
      </trkpt>
      <trkpt lat="44.39898" lon="7.1036">
        <ele>2183</ele>
        <time>2012-08-09T08:12:52Z</time>
      </trkpt>
      <trkpt lat="44.39872" lon="7.10313">
        <ele>2189</ele>
        <time>2012-08-09T08:13:20Z</time>
      </trkpt>
      <trkpt lat="44.39872" lon="7.10311">
        <ele>2188</ele>
        <time>2012-08-09T08:13:21Z</time>
      </trkpt>
      <trkpt lat="44.39876" lon="7.10276">
        <ele>2189</ele>
        <time>2012-08-09T08:13:38Z</time>
      </trkpt>
      <trkpt lat="44.39859" lon="7.10263">
        <ele>2193</ele>
        <time>2012-08-09T08:13:52Z</time>
      </trkpt>
      <trkpt lat="44.39856" lon="7.10263">
        <ele>2191</ele>
        <time>2012-08-09T08:13:54Z</time>
      </trkpt>
      <trkpt lat="44.39853" lon="7.10262">
        <ele>2193</ele>
        <time>2012-08-09T08:13:56Z</time>
      </trkpt>
      <trkpt lat="44.39851" lon="7.10261">
        <ele>2192</ele>
        <time>2012-08-09T08:13:58Z</time>
      </trkpt>
      <trkpt lat="44.39844" lon="7.10259">
        <ele>2194</ele>
        <time>2012-08-09T08:14:03Z</time>
      </trkpt>
      <trkpt lat="44.39843" lon="7.10258">
        <ele>2192</ele>
        <time>2012-08-09T08:14:04Z</time>
      </trkpt>
      <trkpt lat="44.39833" lon="7.10253">
        <ele>2196</ele>
        <time>2012-08-09T08:14:12Z</time>
      </trkpt>
      <trkpt lat="44.39822" lon="7.10244">
        <ele>2197</ele>
        <time>2012-08-09T08:14:22Z</time>
      </trkpt>
      <trkpt lat="44.39816" lon="7.10239">
        <ele>2197</ele>
        <time>2012-08-09T08:14:28Z</time>
      </trkpt>
      <trkpt lat="44.39805" lon="7.10245">
        <ele>2200</ele>
        <time>2012-08-09T08:14:36Z</time>
      </trkpt>
      <trkpt lat="44.39743" lon="7.10263">
        <ele>2204</ele>
        <time>2012-08-09T08:15:22Z</time>
      </trkpt>
      <trkpt lat="44.39738" lon="7.10264">
        <ele>2206</ele>
        <time>2012-08-09T08:15:27Z</time>
      </trkpt>
      <trkpt lat="44.39605" lon="7.10216">
        <ele>2220</ele>
        <time>2012-08-09T08:17:08Z</time>
      </trkpt>
      <trkpt lat="44.39602" lon="7.10214">
        <ele>2219</ele>
        <time>2012-08-09T08:17:12Z</time>
      </trkpt>
      <trkpt lat="44.39582" lon="7.10199">
        <ele>2223</ele>
        <time>2012-08-09T08:17:28Z</time>
      </trkpt>
      <trkpt lat="44.3957" lon="7.10195">
        <ele>2222</ele>
        <time>2012-08-09T08:17:36Z</time>
      </trkpt>
      <trkpt lat="44.39569" lon="7.10194">
        <ele>2224</ele>
        <time>2012-08-09T08:17:38Z</time>
      </trkpt>
      <trkpt lat="44.39567" lon="7.10194">
        <ele>2222</ele>
        <time>2012-08-09T08:17:39Z</time>
      </trkpt>
      <trkpt lat="44.39566" lon="7.10194">
        <ele>2223</ele>
        <time>2012-08-09T08:17:40Z</time>
      </trkpt>
      <trkpt lat="44.39562" lon="7.10192">
        <ele>2222</ele>
        <time>2012-08-09T08:17:42Z</time>
      </trkpt>
      <trkpt lat="44.39557" lon="7.1019">
        <ele>2224</ele>
        <time>2012-08-09T08:17:46Z</time>
      </trkpt>
      <trkpt lat="44.39554" lon="7.10188">
        <ele>2224</ele>
        <time>2012-08-09T08:17:49Z</time>
      </trkpt>
      <trkpt lat="44.39531" lon="7.10155">
        <ele>2229</ele>
        <time>2012-08-09T08:18:13Z</time>
      </trkpt>
      <trkpt lat="44.39514" lon="7.10141">
        <ele>2230</ele>
        <time>2012-08-09T08:18:28Z</time>
      </trkpt>
      <trkpt lat="44.39501" lon="7.10135">
        <ele>2231</ele>
        <time>2012-08-09T08:18:50Z</time>
      </trkpt>
      <trkpt lat="44.39509" lon="7.10119">
        <ele>2233</ele>
        <time>2012-08-09T08:19:03Z</time>
      </trkpt>
      <trkpt lat="44.39529" lon="7.10126">
        <ele>2234</ele>
        <time>2012-08-09T08:19:18Z</time>
      </trkpt>
      <trkpt lat="44.39545" lon="7.10131">
        <ele>2237</ele>
        <time>2012-08-09T08:19:32Z</time>
      </trkpt>
      <trkpt lat="44.39561" lon="7.10135">
        <ele>2239</ele>
        <time>2012-08-09T08:19:46Z</time>
      </trkpt>
      <trkpt lat="44.39658" lon="7.10127">
        <ele>2250</ele>
        <time>2012-08-09T08:21:00Z</time>
      </trkpt>
      <trkpt lat="44.39707" lon="7.10103">
        <ele>2254</ele>
        <time>2012-08-09T08:21:37Z</time>
      </trkpt>
      <trkpt lat="44.39725" lon="7.10109">
        <ele>2255</ele>
        <time>2012-08-09T08:21:51Z</time>
      </trkpt>
      <trkpt lat="44.39731" lon="7.1011">
        <ele>2254</ele>
        <time>2012-08-09T08:21:54Z</time>
      </trkpt>
      <trkpt lat="44.39739" lon="7.10104">
        <ele>2257</ele>
        <time>2012-08-09T08:22:16Z</time>
      </trkpt>
      <trkpt lat="44.39741" lon="7.10102">
        <ele>2255</ele>
        <time>2012-08-09T08:22:18Z</time>
      </trkpt>
      <trkpt lat="44.39742" lon="7.10101">
        <ele>2256</ele>
        <time>2012-08-09T08:22:19Z</time>
      </trkpt>
      <trkpt lat="44.39741" lon="7.10098">
        <ele>2265.6</ele>
        <time>2012-08-09T08:22:22Z</time>
      </trkpt>
      <trkpt lat="44.39733" lon="7.10095">
        <ele>2258</ele>
        <time>2012-08-09T08:22:28Z</time>
      </trkpt>
      <trkpt lat="44.3973" lon="7.10093">
        <ele>2256</ele>
        <time>2012-08-09T08:22:30Z</time>
      </trkpt>
      <trkpt lat="44.39722" lon="7.1009">
        <ele>2268</ele>
        <time>2012-08-09T08:22:34Z</time>
      </trkpt>
      <trkpt lat="44.39661" lon="7.10095">
        <ele>2266</ele>
        <time>2012-08-09T08:23:32Z</time>
      </trkpt>
      <trkpt lat="44.3958" lon="7.10044">
        <ele>2274</ele>
        <time>2012-08-09T08:24:41Z</time>
      </trkpt>
      <trkpt lat="44.39543" lon="7.10001">
        <ele>2280</ele>
        <time>2012-08-09T08:25:16Z</time>
      </trkpt>
      <trkpt lat="44.39541" lon="7.1">
        <ele>2278</ele>
        <time>2012-08-09T08:25:18Z</time>
      </trkpt>
      <trkpt lat="44.39504" lon="7.10006">
        <ele>2284</ele>
        <time>2012-08-09T08:25:44Z</time>
      </trkpt>
      <trkpt lat="44.39454" lon="7.10027">
        <ele>2288</ele>
        <time>2012-08-09T08:26:18Z</time>
      </trkpt>
      <trkpt lat="44.39441" lon="7.1003">
        <ele>2287</ele>
        <time>2012-08-09T08:26:26Z</time>
      </trkpt>
      <trkpt lat="44.39437" lon="7.10029">
        <ele>2290</ele>
        <time>2012-08-09T08:26:31Z</time>
      </trkpt>
      <trkpt lat="44.39435" lon="7.10029">
        <ele>2289</ele>
        <time>2012-08-09T08:26:32Z</time>
      </trkpt>
      <trkpt lat="44.39427" lon="7.1003">
        <ele>2291</ele>
        <time>2012-08-09T08:26:38Z</time>
      </trkpt>
      <trkpt lat="44.3937" lon="7.10015">
        <ele>2295</ele>
        <time>2012-08-09T08:27:24Z</time>
      </trkpt>
      <trkpt lat="44.3936" lon="7.09996">
        <ele>2298</ele>
        <time>2012-08-09T08:27:42Z</time>
      </trkpt>
      <trkpt lat="44.39353" lon="7.09967">
        <ele>2301</ele>
        <time>2012-08-09T08:27:58Z</time>
      </trkpt>
      <trkpt lat="44.39344" lon="7.09944">
        <ele>2300</ele>
        <time>2012-08-09T08:28:12Z</time>
      </trkpt>
      <trkpt lat="44.39314" lon="7.09909">
        <ele>2317</ele>
        <time>2012-08-09T08:28:44Z</time>
      </trkpt>
      <trkpt lat="44.39312" lon="7.09905">
        <ele>2305</ele>
        <time>2012-08-09T08:28:48Z</time>
      </trkpt>
      <trkpt lat="44.39261" lon="7.09874">
        <ele>2312</ele>
        <time>2012-08-09T08:29:34Z</time>
      </trkpt>
      <trkpt lat="44.3926" lon="7.09869">
        <ele>2310</ele>
        <time>2012-08-09T08:29:36Z</time>
      </trkpt>
      <trkpt lat="44.39261" lon="7.0983">
        <ele>2316</ele>
        <time>2012-08-09T08:30:26Z</time>
      </trkpt>
      <trkpt lat="44.39257" lon="7.09791">
        <ele>2316</ele>
        <time>2012-08-09T08:30:48Z</time>
      </trkpt>
      <trkpt lat="44.39216" lon="7.09773">
        <ele>2322</ele>
        <time>2012-08-09T08:31:22Z</time>
      </trkpt>
      <trkpt lat="44.39209" lon="7.09766">
        <ele>2322</ele>
        <time>2012-08-09T08:31:29Z</time>
      </trkpt>
      <trkpt lat="44.39205" lon="7.09761">
        <ele>2318</ele>
        <time>2012-08-09T08:31:33Z</time>
      </trkpt>
      <trkpt lat="44.392" lon="7.09745">
        <ele>2327</ele>
        <time>2012-08-09T08:32:40Z</time>
      </trkpt>
      <trkpt lat="44.39285" lon="7.09761">
        <ele>2349.7</ele>
        <time>2012-08-09T08:34:51Z</time>
      </trkpt>
      <trkpt lat="44.394" lon="7.09843">
        <ele>2354</ele>
        <time>2012-08-09T08:37:04Z</time>
      </trkpt>
      <trkpt lat="44.39425" lon="7.09837">
        <ele>2357</ele>
        <time>2012-08-09T08:37:34Z</time>
      </trkpt>
      <trkpt lat="44.39402" lon="7.09824">
        <ele>2360</ele>
        <time>2012-08-09T08:37:58Z</time>
      </trkpt>
      <trkpt lat="44.39386" lon="7.09791">
        <ele>2363</ele>
        <time>2012-08-09T08:38:28Z</time>
      </trkpt>
      <trkpt lat="44.39374" lon="7.09736">
        <ele>2365</ele>
        <time>2012-08-09T08:39:03Z</time>
      </trkpt>
      <trkpt lat="44.39366" lon="7.09732">
        <ele>2368</ele>
        <time>2012-08-09T08:39:09Z</time>
      </trkpt>
      <trkpt lat="44.39359" lon="7.0973">
        <ele>2367</ele>
        <time>2012-08-09T08:39:14Z</time>
      </trkpt>
      <trkpt lat="44.39356" lon="7.09729">
        <ele>2367</ele>
        <time>2012-08-09T08:39:16Z</time>
      </trkpt>
      <trkpt lat="44.39352" lon="7.09727">
        <ele>2368</ele>
        <time>2012-08-09T08:39:21Z</time>
      </trkpt>
      <trkpt lat="44.39338" lon="7.09718">
        <ele>2369</ele>
        <time>2012-08-09T08:39:32Z</time>
      </trkpt>
      <trkpt lat="44.39336" lon="7.09717">
        <ele>2371</ele>
        <time>2012-08-09T08:39:35Z</time>
      </trkpt>
      <trkpt lat="44.39335" lon="7.09716">
        <ele>2369</ele>
        <time>2012-08-09T08:39:38Z</time>
      </trkpt>
      <trkpt lat="44.39328" lon="7.09707">
        <ele>2372</ele>
        <time>2012-08-09T08:39:51Z</time>
      </trkpt>
      <trkpt lat="44.39322" lon="7.09697">
        <ele>2371</ele>
        <time>2012-08-09T08:39:58Z</time>
      </trkpt>
      <trkpt lat="44.39319" lon="7.09688">
        <ele>2372</ele>
        <time>2012-08-09T08:40:09Z</time>
      </trkpt>
      <trkpt lat="44.39306" lon="7.09672">
        <ele>2375</ele>
        <time>2012-08-09T08:40:31Z</time>
      </trkpt>
      <trkpt lat="44.39282" lon="7.09674">
        <ele>2378</ele>
        <time>2012-08-09T08:41:03Z</time>
      </trkpt>
      <trkpt lat="44.39263" lon="7.09672">
        <ele>2377</ele>
        <time>2012-08-09T08:41:22Z</time>
      </trkpt>
      <trkpt lat="44.39168" lon="7.09569">
        <ele>2401</ele>
        <time>2012-08-09T08:46:21Z</time>
      </trkpt>
      <trkpt lat="44.39166" lon="7.09544">
        <ele>2387</ele>
        <time>2012-08-09T08:46:38Z</time>
      </trkpt>
      <trkpt lat="44.3915" lon="7.09533">
        <ele>2401.4</ele>
        <time>2012-08-09T08:47:05Z</time>
      </trkpt>
      <trkpt lat="44.39123" lon="7.09498">
        <ele>2406.7</ele>
        <time>2012-08-09T08:48:16Z</time>
      </trkpt>
      <trkpt lat="44.39109" lon="7.09482">
        <ele>2400</ele>
        <time>2012-08-09T08:49:16Z</time>
      </trkpt>
      <trkpt lat="44.39116" lon="7.09459">
        <ele>2405</ele>
        <time>2012-08-09T08:49:50Z</time>
      </trkpt>
      <trkpt lat="44.39119" lon="7.09452">
        <ele>2405</ele>
        <time>2012-08-09T08:49:56Z</time>
      </trkpt>
      <trkpt lat="44.39089" lon="7.09426">
        <ele>2432.3</ele>
        <time>2012-08-09T08:51:43Z</time>
      </trkpt>
      <trkpt lat="44.39091" lon="7.09419">
        <ele>2420</ele>
        <time>2012-08-09T08:52:27Z</time>
      </trkpt>
      <trkpt lat="44.39082" lon="7.09409">
        <ele>2425</ele>
        <time>2012-08-09T08:53:07Z</time>
      </trkpt>
      <trkpt lat="44.39088" lon="7.09393">
        <ele>2424</ele>
        <time>2012-08-09T08:53:21Z</time>
      </trkpt>
      <trkpt lat="44.39093" lon="7.09379">
        <ele>2426</ele>
        <time>2012-08-09T08:53:29Z</time>
      </trkpt>
      <trkpt lat="44.39067" lon="7.09381">
        <ele>2451.6</ele>
        <time>2012-08-09T08:54:30Z</time>
      </trkpt>
      <trkpt lat="44.39063" lon="7.09374">
        <ele>2436</ele>
        <time>2012-08-09T08:55:01Z</time>
      </trkpt>
      <trkpt lat="44.39064" lon="7.09356">
        <ele>2459.2</ele>
        <time>2012-08-09T08:55:18Z</time>
      </trkpt>
      <trkpt lat="44.39052" lon="7.09361">
        <ele>2446</ele>
        <time>2012-08-09T08:55:46Z</time>
      </trkpt>
      <trkpt lat="44.39049" lon="7.09362">
        <ele>2446</ele>
        <time>2012-08-09T08:55:58Z</time>
      </trkpt>
      <trkpt lat="44.39049" lon="7.09362">
        <ele>2464.9</ele>
        <time>2012-08-09T08:56:10Z</time>
      </trkpt>
      <trkpt lat="44.39049" lon="7.09347">
        <ele>2453</ele>
        <time>2012-08-09T08:56:37Z</time>
      </trkpt>
      <trkpt lat="44.39047" lon="7.09337">
        <ele>2454</ele>
        <time>2012-08-09T08:56:58Z</time>
      </trkpt>
      <trkpt lat="44.39053" lon="7.09321">
        <ele>2458</ele>
        <time>2012-08-09T08:57:21Z</time>
      </trkpt>
      <trkpt lat="44.39052" lon="7.09319">
        <ele>2458</ele>
        <time>2012-08-09T08:57:22Z</time>
      </trkpt>
      <trkpt lat="44.3903" lon="7.09327">
        <ele>2482.2</ele>
        <time>2012-08-09T08:58:33Z</time>
      </trkpt>
      <trkpt lat="44.39033" lon="7.09306">
        <ele>2487.9</ele>
        <time>2012-08-09T08:59:20Z</time>
      </trkpt>
      <trkpt lat="44.39028" lon="7.09301">
        <ele>2477</ele>
        <time>2012-08-09T08:59:31Z</time>
      </trkpt>
      <trkpt lat="44.39007" lon="7.09307">
        <ele>2480</ele>
        <time>2012-08-09T09:00:21Z</time>
      </trkpt>
      <trkpt lat="44.39012" lon="7.09305">
        <ele>2485</ele>
        <time>2012-08-09T09:00:41Z</time>
      </trkpt>
      <trkpt lat="44.39017" lon="7.09293">
        <ele>2486</ele>
        <time>2012-08-09T09:02:06Z</time>
      </trkpt>
      <trkpt lat="44.39019" lon="7.09283">
        <ele>2487</ele>
        <time>2012-08-09T09:02:14Z</time>
      </trkpt>
      <trkpt lat="44.38959" lon="7.09319">
        <ele>2524.6</ele>
        <time>2012-08-09T09:04:48Z</time>
      </trkpt>
      <trkpt lat="44.3896" lon="7.09302">
        <ele>2511</ele>
        <time>2012-08-09T09:06:22Z</time>
      </trkpt>
      <trkpt lat="44.38955" lon="7.09307">
        <ele>2511</ele>
        <time>2012-08-09T09:11:01Z</time>
      </trkpt>
      <trkpt lat="44.38956" lon="7.09312">
        <ele>2512</ele>
        <time>2012-08-09T09:11:02Z</time>
      </trkpt>
      <trkpt lat="44.38997" lon="7.09304">
        <ele>2488</ele>
        <time>2012-08-09T09:11:43Z</time>
      </trkpt>
      <trkpt lat="44.39006" lon="7.09298">
        <ele>2489</ele>
        <time>2012-08-09T09:11:46Z</time>
      </trkpt>
      <trkpt lat="44.39041" lon="7.09257">
        <ele>2504.1</ele>
        <time>2012-08-09T09:12:01Z</time>
      </trkpt>
      <trkpt lat="44.39102" lon="7.09223">
        <ele>2506.4</ele>
        <time>2012-08-09T09:14:54Z</time>
      </trkpt>
      <trkpt lat="44.39284" lon="7.09304">
        <ele>2506.9</ele>
        <time>2012-08-09T09:20:48Z</time>
      </trkpt>
      <trkpt lat="44.39278" lon="7.09347">
        <ele>2497.6</ele>
        <time>2012-08-09T09:22:13Z</time>
      </trkpt>
      <trkpt lat="44.3929" lon="7.0937">
        <ele>2484</ele>
        <time>2012-08-09T09:22:50Z</time>
      </trkpt>
      <trkpt lat="44.39313" lon="7.09376">
        <ele>2502.6</ele>
        <time>2012-08-09T09:23:26Z</time>
      </trkpt>
      <trkpt lat="44.39317" lon="7.09385">
        <ele>2487</ele>
        <time>2012-08-09T09:23:43Z</time>
      </trkpt>
      <trkpt lat="44.39325" lon="7.09381">
        <ele>2491</ele>
        <time>2012-08-09T09:24:05Z</time>
      </trkpt>
      <trkpt lat="44.3934" lon="7.09369">
        <ele>2513.7</ele>
        <time>2012-08-09T09:24:48Z</time>
      </trkpt>
      <trkpt lat="44.3935" lon="7.09394">
        <ele>2517.6</ele>
        <time>2012-08-09T09:25:34Z</time>
      </trkpt>
      <trkpt lat="44.39353" lon="7.09399">
        <ele>2501</ele>
        <time>2012-08-09T09:25:42Z</time>
      </trkpt>
      <trkpt lat="44.39356" lon="7.09377">
        <ele>2522</ele>
        <time>2012-08-09T09:26:08Z</time>
      </trkpt>
      <trkpt lat="44.3936" lon="7.09357">
        <ele>2507</ele>
        <time>2012-08-09T09:26:26Z</time>
      </trkpt>
      <trkpt lat="44.39362" lon="7.09376">
        <ele>2510</ele>
        <time>2012-08-09T09:26:46Z</time>
      </trkpt>
      <trkpt lat="44.39377" lon="7.09387">
        <ele>2512</ele>
        <time>2012-08-09T09:28:08Z</time>
      </trkpt>
      <trkpt lat="44.39377" lon="7.09415">
        <ele>2514</ele>
        <time>2012-08-09T09:28:22Z</time>
      </trkpt>
      <trkpt lat="44.39417" lon="7.09432">
        <ele>2526</ele>
        <time>2012-08-09T09:29:41Z</time>
      </trkpt>
      <trkpt lat="44.39425" lon="7.09415">
        <ele>2529</ele>
        <time>2012-08-09T09:30:02Z</time>
      </trkpt>
      <trkpt lat="44.39426" lon="7.09415">
        <ele>2527</ele>
        <time>2012-08-09T09:30:04Z</time>
      </trkpt>
      <trkpt lat="44.39436" lon="7.09459">
        <ele>2534</ele>
        <time>2012-08-09T09:30:51Z</time>
      </trkpt>
      <trkpt lat="44.39457" lon="7.09374">
        <ele>2550</ele>
        <time>2012-08-09T09:33:02Z</time>
      </trkpt>
      <trkpt lat="44.39447" lon="7.09273">
        <ele>2560</ele>
        <time>2012-08-09T09:35:44Z</time>
      </trkpt>
      <trkpt lat="44.39459" lon="7.09226">
        <ele>2564</ele>
        <time>2012-08-09T09:36:32Z</time>
      </trkpt>
      <trkpt lat="44.39459" lon="7.0922">
        <ele>2563</ele>
        <time>2012-08-09T09:36:35Z</time>
      </trkpt>
      <trkpt lat="44.39446" lon="7.09196">
        <ele>2566</ele>
        <time>2012-08-09T09:36:56Z</time>
      </trkpt>
      <trkpt lat="44.39432" lon="7.0917">
        <ele>2566</ele>
        <time>2012-08-09T09:37:39Z</time>
      </trkpt>
      <trkpt lat="44.3943" lon="7.09163">
        <ele>2562</ele>
        <time>2012-08-09T09:37:41Z</time>
      </trkpt>
      <trkpt lat="44.39427" lon="7.09155">
        <ele>2562</ele>
        <time>2012-08-09T09:37:43Z</time>
      </trkpt>
      <trkpt lat="44.39425" lon="7.09146">
        <ele>2560</ele>
        <time>2012-08-09T09:37:45Z</time>
      </trkpt>
      <trkpt lat="44.39423" lon="7.09121">
        <ele>2557</ele>
        <time>2012-08-09T09:38:09Z</time>
      </trkpt>
      <trkpt lat="44.39437" lon="7.09057">
        <ele>2549</ele>
        <time>2012-08-09T09:38:44Z</time>
      </trkpt>
      <trkpt lat="44.39444" lon="7.09018">
        <ele>2539</ele>
        <time>2012-08-09T09:38:54Z</time>
      </trkpt>
      <trkpt lat="44.39446" lon="7.08985">
        <ele>2537</ele>
        <time>2012-08-09T09:39:52Z</time>
      </trkpt>
      <trkpt lat="44.39447" lon="7.08981">
        <ele>2535</ele>
        <time>2012-08-09T09:39:53Z</time>
      </trkpt>
      <trkpt lat="44.39449" lon="7.08965">
        <ele>2534</ele>
        <time>2012-08-09T09:39:56Z</time>
      </trkpt>
      <trkpt lat="44.39466" lon="7.08925">
        <ele>2527</ele>
        <time>2012-08-09T09:40:08Z</time>
      </trkpt>
      <trkpt lat="44.39477" lon="7.08913">
        <ele>2521</ele>
        <time>2012-08-09T09:40:13Z</time>
      </trkpt>
      <trkpt lat="44.3948" lon="7.0891">
        <ele>2521</ele>
        <time>2012-08-09T09:40:14Z</time>
      </trkpt>
      <trkpt lat="44.3953" lon="7.08858">
        <ele>2508</ele>
        <time>2012-08-09T09:40:36Z</time>
      </trkpt>
      <trkpt lat="44.39538" lon="7.08851">
        <ele>2505</ele>
        <time>2012-08-09T09:40:38Z</time>
      </trkpt>
      <trkpt lat="44.39545" lon="7.08845">
        <ele>2506</ele>
        <time>2012-08-09T09:41:13Z</time>
      </trkpt>
      <trkpt lat="44.39575" lon="7.08799">
        <ele>2501</ele>
        <time>2012-08-09T09:41:45Z</time>
      </trkpt>
      <trkpt lat="44.39586" lon="7.08771">
        <ele>2494</ele>
        <time>2012-08-09T09:41:52Z</time>
      </trkpt>
      <trkpt lat="44.39627" lon="7.08742">
        <ele>2489</ele>
        <time>2012-08-09T09:50:36Z</time>
      </trkpt>
      <trkpt lat="44.39663" lon="7.08634">
        <ele>2462</ele>
        <time>2012-08-09T09:52:17Z</time>
      </trkpt>
      <trkpt lat="44.39666" lon="7.08627">
        <ele>2459</ele>
        <time>2012-08-09T09:52:19Z</time>
      </trkpt>
      <trkpt lat="44.39638" lon="7.08583">
        <ele>2457</ele>
        <time>2012-08-09T09:52:33Z</time>
      </trkpt>
      <trkpt lat="44.39634" lon="7.08553">
        <ele>2450</ele>
        <time>2012-08-09T09:52:41Z</time>
      </trkpt>
      <trkpt lat="44.39617" lon="7.08547">
        <ele>2449</ele>
        <time>2012-08-09T09:52:49Z</time>
      </trkpt>
      <trkpt lat="44.3961" lon="7.08469">
        <ele>2446</ele>
        <time>2012-08-09T09:53:23Z</time>
      </trkpt>
      <trkpt lat="44.39598" lon="7.08458">
        <ele>2448</ele>
        <time>2012-08-09T09:54:08Z</time>
      </trkpt>
      <trkpt lat="44.39594" lon="7.08442">
        <ele>2446</ele>
        <time>2012-08-09T09:54:17Z</time>
      </trkpt>
      <trkpt lat="44.39615" lon="7.08364">
        <ele>2432</ele>
        <time>2012-08-09T09:54:47Z</time>
      </trkpt>
      <trkpt lat="44.39625" lon="7.0836">
        <ele>2428</ele>
        <time>2012-08-09T09:54:54Z</time>
      </trkpt>
      <trkpt lat="44.39613" lon="7.0834">
        <ele>2424</ele>
        <time>2012-08-09T09:55:04Z</time>
      </trkpt>
      <trkpt lat="44.39614" lon="7.08337">
        <ele>2422</ele>
        <time>2012-08-09T09:55:06Z</time>
      </trkpt>
      <trkpt lat="44.39614" lon="7.08333">
        <ele>2421</ele>
        <time>2012-08-09T09:55:09Z</time>
      </trkpt>
      <trkpt lat="44.39618" lon="7.08325">
        <ele>2420</ele>
        <time>2012-08-09T09:55:13Z</time>
      </trkpt>
      <trkpt lat="44.39628" lon="7.08302">
        <ele>2422</ele>
        <time>2012-08-09T09:55:20Z</time>
      </trkpt>
      <trkpt lat="44.39639" lon="7.08284">
        <ele>2419</ele>
        <time>2012-08-09T09:55:31Z</time>
      </trkpt>
      <trkpt lat="44.39642" lon="7.08276">
        <ele>2416</ele>
        <time>2012-08-09T09:55:36Z</time>
      </trkpt>
      <trkpt lat="44.39649" lon="7.08267">
        <ele>2417</ele>
        <time>2012-08-09T09:55:42Z</time>
      </trkpt>
      <trkpt lat="44.3965" lon="7.08266">
        <ele>2414</ele>
        <time>2012-08-09T09:55:43Z</time>
      </trkpt>
      <trkpt lat="44.39651" lon="7.08264">
        <ele>2413</ele>
        <time>2012-08-09T09:55:45Z</time>
      </trkpt>
      <trkpt lat="44.39654" lon="7.08247">
        <ele>2410</ele>
        <time>2012-08-09T09:55:56Z</time>
      </trkpt>
      <trkpt lat="44.39679" lon="7.08224">
        <ele>2409</ele>
        <time>2012-08-09T09:56:28Z</time>
      </trkpt>
      <trkpt lat="44.39681" lon="7.08222">
        <ele>2407</ele>
        <time>2012-08-09T09:56:29Z</time>
      </trkpt>
      <trkpt lat="44.39692" lon="7.08204">
        <ele>2404</ele>
        <time>2012-08-09T09:56:35Z</time>
      </trkpt>
      <trkpt lat="44.39695" lon="7.08197">
        <ele>2404</ele>
        <time>2012-08-09T09:56:37Z</time>
      </trkpt>
      <trkpt lat="44.39696" lon="7.08194">
        <ele>2403</ele>
        <time>2012-08-09T09:56:38Z</time>
      </trkpt>
      <trkpt lat="44.39687" lon="7.08166">
        <ele>2404</ele>
        <time>2012-08-09T09:56:49Z</time>
      </trkpt>
      <trkpt lat="44.39687" lon="7.08141">
        <ele>2401</ele>
        <time>2012-08-09T09:56:57Z</time>
      </trkpt>
      <trkpt lat="44.39682" lon="7.08132">
        <ele>2402</ele>
        <time>2012-08-09T09:57:00Z</time>
      </trkpt>
      <trkpt lat="44.39673" lon="7.08081">
        <ele>2393</ele>
        <time>2012-08-09T09:57:32Z</time>
      </trkpt>
      <trkpt lat="44.39689" lon="7.08011">
        <ele>2379</ele>
        <time>2012-08-09T09:58:01Z</time>
      </trkpt>
      <trkpt lat="44.39709" lon="7.07928">
        <ele>2372</ele>
        <time>2012-08-09T09:58:31Z</time>
      </trkpt>
      <trkpt lat="44.39709" lon="7.079">
        <ele>2367</ele>
        <time>2012-08-09T09:59:33Z</time>
      </trkpt>
      <trkpt lat="44.39728" lon="7.07892">
        <ele>2367</ele>
        <time>2012-08-09T09:59:54Z</time>
      </trkpt>
      <trkpt lat="44.39818" lon="7.07869">
        <ele>2355</ele>
        <time>2012-08-09T10:01:27Z</time>
      </trkpt>
      <trkpt lat="44.39858" lon="7.07847">
        <ele>2344</ele>
        <time>2012-08-09T10:01:50Z</time>
      </trkpt>
      <trkpt lat="44.39871" lon="7.07844">
        <ele>2336</ele>
        <time>2012-08-09T10:01:59Z</time>
      </trkpt>
      <trkpt lat="44.39873" lon="7.07843">
        <ele>2335</ele>
        <time>2012-08-09T10:02:01Z</time>
      </trkpt>
      <trkpt lat="44.39875" lon="7.07842">
        <ele>2334</ele>
        <time>2012-08-09T10:02:03Z</time>
      </trkpt>
      <trkpt lat="44.39877" lon="7.07837">
        <ele>2334</ele>
        <time>2012-08-09T10:02:07Z</time>
      </trkpt>
      <trkpt lat="44.39883" lon="7.0784">
        <ele>2331</ele>
        <time>2012-08-09T10:02:13Z</time>
      </trkpt>
      <trkpt lat="44.39888" lon="7.0784">
        <ele>2328</ele>
        <time>2012-08-09T10:02:22Z</time>
      </trkpt>
      <trkpt lat="44.39891" lon="7.07837">
        <ele>2329</ele>
        <time>2012-08-09T10:02:24Z</time>
      </trkpt>
      <trkpt lat="44.39893" lon="7.07835">
        <ele>2325</ele>
        <time>2012-08-09T10:02:25Z</time>
      </trkpt>
      <trkpt lat="44.39901" lon="7.07829">
        <ele>2324</ele>
        <time>2012-08-09T10:02:34Z</time>
      </trkpt>
      <trkpt lat="44.39927" lon="7.07832">
        <ele>2315</ele>
        <time>2012-08-09T10:03:13Z</time>
      </trkpt>
      <trkpt lat="44.39948" lon="7.07817">
        <ele>2313</ele>
        <time>2012-08-09T10:03:27Z</time>
      </trkpt>
      <trkpt lat="44.39951" lon="7.07815">
        <ele>2310</ele>
        <time>2012-08-09T10:03:29Z</time>
      </trkpt>
      <trkpt lat="44.39963" lon="7.07805">
        <ele>2306</ele>
        <time>2012-08-09T10:03:37Z</time>
      </trkpt>
      <trkpt lat="44.39971" lon="7.07803">
        <ele>2305</ele>
        <time>2012-08-09T10:03:40Z</time>
      </trkpt>
      <trkpt lat="44.39981" lon="7.07799">
        <ele>2305</ele>
        <time>2012-08-09T10:03:44Z</time>
      </trkpt>
      <trkpt lat="44.39986" lon="7.07796">
        <ele>2302</ele>
        <time>2012-08-09T10:03:47Z</time>
      </trkpt>
      <trkpt lat="44.3997" lon="7.07776">
        <ele>2300</ele>
        <time>2012-08-09T10:04:46Z</time>
      </trkpt>
      <trkpt lat="44.39968" lon="7.07774">
        <ele>2299</ele>
        <time>2012-08-09T10:04:49Z</time>
      </trkpt>
      <trkpt lat="44.39982" lon="7.07772">
        <ele>2297</ele>
        <time>2012-08-09T10:05:42Z</time>
      </trkpt>
      <trkpt lat="44.39985" lon="7.07749">
        <ele>2295</ele>
        <time>2012-08-09T10:06:23Z</time>
      </trkpt>
      <trkpt lat="44.39988" lon="7.07746">
        <ele>2290</ele>
        <time>2012-08-09T10:06:28Z</time>
      </trkpt>
      <trkpt lat="44.39997" lon="7.07741">
        <ele>2291</ele>
        <time>2012-08-09T10:06:38Z</time>
      </trkpt>
      <trkpt lat="44.40001" lon="7.07739">
        <ele>2291</ele>
        <time>2012-08-09T10:06:41Z</time>
      </trkpt>
      <trkpt lat="44.40005" lon="7.07736">
        <ele>2290</ele>
        <time>2012-08-09T10:06:43Z</time>
      </trkpt>
      <trkpt lat="44.40015" lon="7.07697">
        <ele>2291</ele>
        <time>2012-08-09T10:07:19Z</time>
      </trkpt>
      <trkpt lat="44.40018" lon="7.0768">
        <ele>2287</ele>
        <time>2012-08-09T10:07:26Z</time>
      </trkpt>
      <trkpt lat="44.40018" lon="7.07672">
        <ele>2288</ele>
        <time>2012-08-09T10:07:41Z</time>
      </trkpt>
      <trkpt lat="44.40035" lon="7.07665">
        <ele>2280</ele>
        <time>2012-08-09T10:07:54Z</time>
      </trkpt>
      <trkpt lat="44.40067" lon="7.07643">
        <ele>2270</ele>
        <time>2012-08-09T10:08:11Z</time>
      </trkpt>
      <trkpt lat="44.40051" lon="7.07615">
        <ele>2270</ele>
        <time>2012-08-09T10:08:26Z</time>
      </trkpt>
      <trkpt lat="44.40058" lon="7.07601">
        <ele>2271</ele>
        <time>2012-08-09T10:08:38Z</time>
      </trkpt>
      <trkpt lat="44.40088" lon="7.07561">
        <ele>2266</ele>
        <time>2012-08-09T10:10:06Z</time>
      </trkpt>
      <trkpt lat="44.40095" lon="7.07552">
        <ele>2264</ele>
        <time>2012-08-09T10:10:16Z</time>
      </trkpt>
      <trkpt lat="44.40119" lon="7.07544">
        <ele>2261</ele>
        <time>2012-08-09T10:10:53Z</time>
      </trkpt>
      <trkpt lat="44.40121" lon="7.07544">
        <ele>2258</ele>
        <time>2012-08-09T10:10:55Z</time>
      </trkpt>
      <trkpt lat="44.40122" lon="7.07543">
        <ele>2259</ele>
        <time>2012-08-09T10:10:57Z</time>
      </trkpt>
      <trkpt lat="44.40123" lon="7.07543">
        <ele>2258</ele>
        <time>2012-08-09T10:10:58Z</time>
      </trkpt>
      <trkpt lat="44.40125" lon="7.07544">
        <ele>2258</ele>
        <time>2012-08-09T10:11:00Z</time>
      </trkpt>
      <trkpt lat="44.40128" lon="7.07546">
        <ele>2258</ele>
        <time>2012-08-09T10:11:03Z</time>
      </trkpt>
      <trkpt lat="44.4013" lon="7.07547">
        <ele>2254</ele>
        <time>2012-08-09T10:11:15Z</time>
      </trkpt>
      <trkpt lat="44.40137" lon="7.07544">
        <ele>2252</ele>
        <time>2012-08-09T10:11:31Z</time>
      </trkpt>
      <trkpt lat="44.40141" lon="7.07545">
        <ele>2251</ele>
        <time>2012-08-09T10:11:33Z</time>
      </trkpt>
      <trkpt lat="44.40153" lon="7.07549">
        <ele>2248</ele>
        <time>2012-08-09T10:11:41Z</time>
      </trkpt>
      <trkpt lat="44.40168" lon="7.07558">
        <ele>2251.4</ele>
        <time>2012-08-09T10:11:52Z</time>
      </trkpt>
      <trkpt lat="44.40181" lon="7.07559">
        <ele>2241</ele>
        <time>2012-08-09T10:12:10Z</time>
      </trkpt>
      <trkpt lat="44.40182" lon="7.0756">
        <ele>2240</ele>
        <time>2012-08-09T10:12:12Z</time>
      </trkpt>
      <trkpt lat="44.40183" lon="7.0756">
        <ele>2236</ele>
        <time>2012-08-09T10:12:21Z</time>
      </trkpt>
      <trkpt lat="44.4019" lon="7.07569">
        <ele>2245</ele>
        <time>2012-08-09T10:12:29Z</time>
      </trkpt>
      <trkpt lat="44.40192" lon="7.07569">
        <ele>2234</ele>
        <time>2012-08-09T10:12:30Z</time>
      </trkpt>
      <trkpt lat="44.40196" lon="7.07571">
        <ele>2234</ele>
        <time>2012-08-09T10:12:32Z</time>
      </trkpt>
      <trkpt lat="44.40202" lon="7.07571">
        <ele>2232</ele>
        <time>2012-08-09T10:12:35Z</time>
      </trkpt>
      <trkpt lat="44.40221" lon="7.07564">
        <ele>2230</ele>
        <time>2012-08-09T10:12:47Z</time>
      </trkpt>
      <trkpt lat="44.40227" lon="7.07563">
        <ele>2227</ele>
        <time>2012-08-09T10:12:52Z</time>
      </trkpt>
      <trkpt lat="44.40228" lon="7.0756">
        <ele>2226</ele>
        <time>2012-08-09T10:12:56Z</time>
      </trkpt>
      <trkpt lat="44.40241" lon="7.07558">
        <ele>2223</ele>
        <time>2012-08-09T10:13:05Z</time>
      </trkpt>
      <trkpt lat="44.40236" lon="7.07551">
        <ele>2223</ele>
        <time>2012-08-09T10:13:11Z</time>
      </trkpt>
      <trkpt lat="44.40246" lon="7.07542">
        <ele>2220</ele>
        <time>2012-08-09T10:13:25Z</time>
      </trkpt>
      <trkpt lat="44.40264" lon="7.07543">
        <ele>2219</ele>
        <time>2012-08-09T10:13:42Z</time>
      </trkpt>
      <trkpt lat="44.40271" lon="7.07546">
        <ele>2219</ele>
        <time>2012-08-09T10:13:44Z</time>
      </trkpt>
      <trkpt lat="44.40296" lon="7.07557">
        <ele>2216</ele>
        <time>2012-08-09T10:13:54Z</time>
      </trkpt>
      <trkpt lat="44.40299" lon="7.07544">
        <ele>2213</ele>
        <time>2012-08-09T10:14:12Z</time>
      </trkpt>
      <trkpt lat="44.40286" lon="7.07533">
        <ele>2213</ele>
        <time>2012-08-09T10:14:17Z</time>
      </trkpt>
      <trkpt lat="44.40286" lon="7.07528">
        <ele>2211</ele>
        <time>2012-08-09T10:14:25Z</time>
      </trkpt>
      <trkpt lat="44.40356" lon="7.0748">
        <ele>2200</ele>
        <time>2012-08-09T10:15:48Z</time>
      </trkpt>
      <trkpt lat="44.40369" lon="7.07476">
        <ele>2206.3</ele>
        <time>2012-08-09T10:16:08Z</time>
      </trkpt>
      <trkpt lat="44.40378" lon="7.07471">
        <ele>2196</ele>
        <time>2012-08-09T10:16:16Z</time>
      </trkpt>
      <trkpt lat="44.40392" lon="7.07468">
        <ele>2195</ele>
        <time>2012-08-09T10:16:44Z</time>
      </trkpt>
      <trkpt lat="44.40404" lon="7.07466">
        <ele>2195</ele>
        <time>2012-08-09T10:16:51Z</time>
      </trkpt>
      <trkpt lat="44.40412" lon="7.07465">
        <ele>2193</ele>
        <time>2012-08-09T10:16:54Z</time>
      </trkpt>
      <trkpt lat="44.40435" lon="7.07455">
        <ele>2189</ele>
        <time>2012-08-09T10:17:06Z</time>
      </trkpt>
      <trkpt lat="44.40459" lon="7.07466">
        <ele>2189</ele>
        <time>2012-08-09T10:17:20Z</time>
      </trkpt>
      <trkpt lat="44.40509" lon="7.07467">
        <ele>2173</ele>
        <time>2012-08-09T10:17:51Z</time>
      </trkpt>
      <trkpt lat="44.40521" lon="7.07479">
        <ele>2168</ele>
        <time>2012-08-09T10:19:06Z</time>
      </trkpt>
      <trkpt lat="44.40557" lon="7.07491">
        <ele>2164</ele>
        <time>2012-08-09T10:19:21Z</time>
      </trkpt>
      <trkpt lat="44.40586" lon="7.07525">
        <ele>2157</ele>
        <time>2012-08-09T10:20:19Z</time>
      </trkpt>
      <trkpt lat="44.40606" lon="7.07508">
        <ele>2154</ele>
        <time>2012-08-09T10:20:50Z</time>
      </trkpt>
      <trkpt lat="44.40609" lon="7.07498">
        <ele>2153</ele>
        <time>2012-08-09T10:21:26Z</time>
      </trkpt>
      <trkpt lat="44.4062" lon="7.07499">
        <ele>2150</ele>
        <time>2012-08-09T10:22:26Z</time>
      </trkpt>
      <trkpt lat="44.40623" lon="7.07497">
        <ele>2151</ele>
        <time>2012-08-09T10:22:28Z</time>
      </trkpt>
      <trkpt lat="44.40632" lon="7.07468">
        <ele>2151</ele>
        <time>2012-08-09T10:22:45Z</time>
      </trkpt>
      <trkpt lat="44.40632" lon="7.07463">
        <ele>2150</ele>
        <time>2012-08-09T10:22:47Z</time>
      </trkpt>
      <trkpt lat="44.4064" lon="7.0743">
        <ele>2149</ele>
        <time>2012-08-09T10:22:59Z</time>
      </trkpt>
      <trkpt lat="44.40645" lon="7.07403">
        <ele>2148</ele>
        <time>2012-08-09T10:23:06Z</time>
      </trkpt>
      <trkpt lat="44.40646" lon="7.07394">
        <ele>2148</ele>
        <time>2012-08-09T10:23:08Z</time>
      </trkpt>
      <trkpt lat="44.40649" lon="7.07353">
        <ele>2146</ele>
        <time>2012-08-09T10:23:17Z</time>
      </trkpt>
      <trkpt lat="44.40651" lon="7.07343">
        <ele>2145</ele>
        <time>2012-08-09T10:23:19Z</time>
      </trkpt>
      <trkpt lat="44.40651" lon="7.07326">
        <ele>2142</ele>
        <time>2012-08-09T10:23:22Z</time>
      </trkpt>
      <trkpt lat="44.40649" lon="7.07308">
        <ele>2142</ele>
        <time>2012-08-09T10:23:25Z</time>
      </trkpt>
      <trkpt lat="44.40642" lon="7.07286">
        <ele>2141</ele>
        <time>2012-08-09T10:23:29Z</time>
      </trkpt>
      <trkpt lat="44.40628" lon="7.07251">
        <ele>2141</ele>
        <time>2012-08-09T10:23:36Z</time>
      </trkpt>
      <trkpt lat="44.40641" lon="7.07233">
        <ele>2137</ele>
        <time>2012-08-09T10:23:40Z</time>
      </trkpt>
      <trkpt lat="44.40652" lon="7.07229">
        <ele>2135</ele>
        <time>2012-08-09T10:23:42Z</time>
      </trkpt>
      <trkpt lat="44.40674" lon="7.0721">
        <ele>2134</ele>
        <time>2012-08-09T10:23:47Z</time>
      </trkpt>
      <trkpt lat="44.40676" lon="7.07171">
        <ele>2132</ele>
        <time>2012-08-09T10:23:52Z</time>
      </trkpt>
      <trkpt lat="44.40784" lon="7.07156">
        <ele>2119</ele>
        <time>2012-08-09T10:24:17Z</time>
      </trkpt>
      <trkpt lat="44.40787" lon="7.07154">
        <ele>2117</ele>
        <time>2012-08-09T10:24:18Z</time>
      </trkpt>
      <trkpt lat="44.40833" lon="7.07133">
        <ele>2111</ele>
        <time>2012-08-09T10:24:31Z</time>
      </trkpt>
      <trkpt lat="44.4088" lon="7.07069">
        <ele>2107</ele>
        <time>2012-08-09T10:24:47Z</time>
      </trkpt>
      <trkpt lat="44.40939" lon="7.07004">
        <ele>2093</ele>
        <time>2012-08-09T10:25:08Z</time>
      </trkpt>
      <trkpt lat="44.41042" lon="7.07005">
        <ele>2078</ele>
        <time>2012-08-09T10:25:35Z</time>
      </trkpt>
      <trkpt lat="44.41108" lon="7.06979">
        <ele>2063</ele>
        <time>2012-08-09T10:25:54Z</time>
      </trkpt>
      <trkpt lat="44.4115" lon="7.06996">
        <ele>2063.1</ele>
        <time>2012-08-09T10:27:34Z</time>
      </trkpt>
      <trkpt lat="44.41159" lon="7.06997">
        <ele>2061.8</ele>
        <time>2012-08-09T10:27:36Z</time>
      </trkpt>
      <trkpt lat="44.41173" lon="7.06994">
        <ele>2060</ele>
        <time>2012-08-09T10:27:39Z</time>
      </trkpt>
      <trkpt lat="44.41202" lon="7.0697">
        <ele>2062</ele>
        <time>2012-08-09T10:27:50Z</time>
      </trkpt>
      <trkpt lat="44.41214" lon="7.06958">
        <ele>2060</ele>
        <time>2012-08-09T10:27:56Z</time>
      </trkpt>
      <trkpt lat="44.41263" lon="7.06928">
        <ele>2061</ele>
        <time>2012-08-09T10:28:20Z</time>
      </trkpt>
      <trkpt lat="44.41272" lon="7.06918">
        <ele>2058</ele>
        <time>2012-08-09T10:28:24Z</time>
      </trkpt>
      <trkpt lat="44.41278" lon="7.06912">
        <ele>2059</ele>
        <time>2012-08-09T10:28:26Z</time>
      </trkpt>
      <trkpt lat="44.41285" lon="7.06905">
        <ele>2057</ele>
        <time>2012-08-09T10:28:28Z</time>
      </trkpt>
      <trkpt lat="44.41292" lon="7.06897">
        <ele>2056</ele>
        <time>2012-08-09T10:28:30Z</time>
      </trkpt>
      <trkpt lat="44.41312" lon="7.06861">
        <ele>2054</ele>
        <time>2012-08-09T10:28:37Z</time>
      </trkpt>
      <trkpt lat="44.41317" lon="7.06851">
        <ele>2051</ele>
        <time>2012-08-09T10:28:39Z</time>
      </trkpt>
      <trkpt lat="44.41321" lon="7.0684">
        <ele>2050</ele>
        <time>2012-08-09T10:28:41Z</time>
      </trkpt>
      <trkpt lat="44.41326" lon="7.06827">
        <ele>2051</ele>
        <time>2012-08-09T10:28:43Z</time>
      </trkpt>
      <trkpt lat="44.41332" lon="7.06813">
        <ele>2054.5</ele>
        <time>2012-08-09T10:28:45Z</time>
      </trkpt>
      <trkpt lat="44.41339" lon="7.06798">
        <ele>2052</ele>
        <time>2012-08-09T10:28:47Z</time>
      </trkpt>
      <trkpt lat="44.41389" lon="7.06692">
        <ele>2053</ele>
        <time>2012-08-09T10:29:15Z</time>
      </trkpt>
      <trkpt lat="44.41393" lon="7.0667">
        <ele>2051</ele>
        <time>2012-08-09T10:29:21Z</time>
      </trkpt>
      <trkpt lat="44.41475" lon="7.06619">
        <ele>2057</ele>
        <time>2012-08-09T10:30:18Z</time>
      </trkpt>
      <trkpt lat="44.41476" lon="7.06617">
        <ele>2057</ele>
        <time>2012-08-09T10:30:20Z</time>
      </trkpt>
      <trkpt lat="44.41432" lon="7.06597">
        <ele>2062</ele>
        <time>2012-08-09T10:31:01Z</time>
      </trkpt>
      <trkpt lat="44.41398" lon="7.06537">
        <ele>2067</ele>
        <time>2012-08-09T10:31:42Z</time>
      </trkpt>
      <trkpt lat="44.41417" lon="7.06531">
        <ele>2069</ele>
        <time>2012-08-09T10:31:56Z</time>
      </trkpt>
      <trkpt lat="44.41469" lon="7.06555">
        <ele>2074</ele>
        <time>2012-08-09T10:32:35Z</time>
      </trkpt>
      <trkpt lat="44.41485" lon="7.0653">
        <ele>2078</ele>
        <time>2012-08-09T10:32:56Z</time>
      </trkpt>
      <trkpt lat="44.41481" lon="7.06467">
        <ele>2080</ele>
        <time>2012-08-09T10:33:32Z</time>
      </trkpt>
      <trkpt lat="44.41454" lon="7.06404">
        <ele>2086</ele>
        <time>2012-08-09T10:34:14Z</time>
      </trkpt>
      <trkpt lat="44.41452" lon="7.064">
        <ele>2083</ele>
        <time>2012-08-09T10:34:17Z</time>
      </trkpt>
      <trkpt lat="44.41425" lon="7.06352">
        <ele>2086</ele>
        <time>2012-08-09T10:34:48Z</time>
      </trkpt>
      <trkpt lat="44.41423" lon="7.06346">
        <ele>2086</ele>
        <time>2012-08-09T10:34:52Z</time>
      </trkpt>
      <trkpt lat="44.41433" lon="7.06315">
        <ele>2093</ele>
        <time>2012-08-09T10:35:28Z</time>
      </trkpt>
      <trkpt lat="44.41434" lon="7.06311">
        <ele>2093</ele>
        <time>2012-08-09T10:35:36Z</time>
      </trkpt>
      <trkpt lat="44.41403" lon="7.06334">
        <ele>2095</ele>
        <time>2012-08-09T10:36:24Z</time>
      </trkpt>
      <trkpt lat="44.41397" lon="7.06337">
        <ele>2093</ele>
        <time>2012-08-09T10:36:29Z</time>
      </trkpt>
      <trkpt lat="44.41395" lon="7.06339">
        <ele>2095</ele>
        <time>2012-08-09T10:36:31Z</time>
      </trkpt>
      <trkpt lat="44.41393" lon="7.06344">
        <ele>2094</ele>
        <time>2012-08-09T10:36:35Z</time>
      </trkpt>
      <trkpt lat="44.41388" lon="7.06351">
        <ele>2093</ele>
        <time>2012-08-09T10:36:40Z</time>
      </trkpt>
      <trkpt lat="44.41385" lon="7.06359">
        <ele>2095</ele>
        <time>2012-08-09T10:36:45Z</time>
      </trkpt>
      <trkpt lat="44.41379" lon="7.06366">
        <ele>2095</ele>
        <time>2012-08-09T10:36:54Z</time>
      </trkpt>
      <trkpt lat="44.4138" lon="7.06368">
        <ele>2094</ele>
        <time>2012-08-09T10:36:56Z</time>
      </trkpt>
      <trkpt lat="44.41383" lon="7.0637">
        <ele>2096</ele>
        <time>2012-08-09T10:36:58Z</time>
      </trkpt>
      <trkpt lat="44.41381" lon="7.06397">
        <ele>2095</ele>
        <time>2012-08-09T10:37:16Z</time>
      </trkpt>
      <trkpt lat="44.41379" lon="7.06414">
        <ele>2098</ele>
        <time>2012-08-09T10:37:33Z</time>
      </trkpt>
      <trkpt lat="44.41346" lon="7.06415">
        <ele>2108</ele>
        <time>2012-08-09T10:38:39Z</time>
      </trkpt>
      <trkpt lat="44.41323" lon="7.06415">
        <ele>2108</ele>
        <time>2012-08-09T10:38:56Z</time>
      </trkpt>
      <trkpt lat="44.41298" lon="7.06436">
        <ele>2118</ele>
        <time>2012-08-09T10:39:43Z</time>
      </trkpt>
      <trkpt lat="44.41258" lon="7.06434">
        <ele>2118</ele>
        <time>2012-08-09T10:40:20Z</time>
      </trkpt>
      <trkpt lat="44.4125" lon="7.06431">
        <ele>2121</ele>
        <time>2012-08-09T10:40:24Z</time>
      </trkpt>
      <trkpt lat="44.41241" lon="7.06428">
        <ele>2120</ele>
        <time>2012-08-09T10:40:28Z</time>
      </trkpt>
      <trkpt lat="44.41234" lon="7.06424">
        <ele>2119</ele>
        <time>2012-08-09T10:40:31Z</time>
      </trkpt>
      <trkpt lat="44.41214" lon="7.06413">
        <ele>2121</ele>
        <time>2012-08-09T10:40:43Z</time>
      </trkpt>
      <trkpt lat="44.41164" lon="7.06366">
        <ele>2126</ele>
        <time>2012-08-09T10:41:26Z</time>
      </trkpt>
      <trkpt lat="44.41163" lon="7.06363">
        <ele>2124</ele>
        <time>2012-08-09T10:41:27Z</time>
      </trkpt>
      <trkpt lat="44.41172" lon="7.06343">
        <ele>2125</ele>
        <time>2012-08-09T10:41:43Z</time>
      </trkpt>
      <trkpt lat="44.41191" lon="7.06341">
        <ele>2128</ele>
        <time>2012-08-09T10:42:01Z</time>
      </trkpt>
      <trkpt lat="44.41206" lon="7.06197">
        <ele>2150</ele>
        <time>2012-08-09T10:45:04Z</time>
      </trkpt>
      <trkpt lat="44.41216" lon="7.06163">
        <ele>2156</ele>
        <time>2012-08-09T10:45:46Z</time>
      </trkpt>
      <trkpt lat="44.41207" lon="7.06125">
        <ele>2169</ele>
        <time>2012-08-09T10:47:09Z</time>
      </trkpt>
      <trkpt lat="44.412" lon="7.06102">
        <ele>2172</ele>
        <time>2012-08-09T10:47:38Z</time>
      </trkpt>
      <trkpt lat="44.41182" lon="7.06107">
        <ele>2179</ele>
        <time>2012-08-09T10:48:27Z</time>
      </trkpt>
      <trkpt lat="44.41134" lon="7.06091">
        <ele>2188</ele>
        <time>2012-08-09T10:49:37Z</time>
      </trkpt>
      <trkpt lat="44.41131" lon="7.06086">
        <ele>2185</ele>
        <time>2012-08-09T10:49:42Z</time>
      </trkpt>
      <trkpt lat="44.41126" lon="7.06082">
        <ele>2193.5</ele>
        <time>2012-08-09T10:49:47Z</time>
      </trkpt>
      <trkpt lat="44.41121" lon="7.06061">
        <ele>2192</ele>
        <time>2012-08-09T10:50:34Z</time>
      </trkpt>
      <trkpt lat="44.4109" lon="7.0605">
        <ele>2211.7</ele>
        <time>2012-08-09T10:52:17Z</time>
      </trkpt>
      <trkpt lat="44.41058" lon="7.06068">
        <ele>2221</ele>
        <time>2012-08-09T10:54:12Z</time>
      </trkpt>
      <trkpt lat="44.4105" lon="7.0607">
        <ele>2223</ele>
        <time>2012-08-09T10:54:29Z</time>
      </trkpt>
      <trkpt lat="44.41041" lon="7.06073">
        <ele>2228</ele>
        <time>2012-08-09T10:55:02Z</time>
      </trkpt>
      <trkpt lat="44.41036" lon="7.06075">
        <ele>2230</ele>
        <time>2012-08-09T10:55:07Z</time>
      </trkpt>
      <trkpt lat="44.41011" lon="7.06091">
        <ele>2233</ele>
        <time>2012-08-09T10:55:43Z</time>
      </trkpt>
      <trkpt lat="44.41005" lon="7.06106">
        <ele>2232</ele>
        <time>2012-08-09T10:55:55Z</time>
      </trkpt>
      <trkpt lat="44.41003" lon="7.06109">
        <ele>2234</ele>
        <time>2012-08-09T10:55:57Z</time>
      </trkpt>
      <trkpt lat="44.41002" lon="7.06113">
        <ele>2232</ele>
        <time>2012-08-09T10:55:59Z</time>
      </trkpt>
      <trkpt lat="44.41" lon="7.06117">
        <ele>2234</ele>
        <time>2012-08-09T10:56:01Z</time>
      </trkpt>
      <trkpt lat="44.40999" lon="7.06121">
        <ele>2236</ele>
        <time>2012-08-09T10:56:03Z</time>
      </trkpt>
      <trkpt lat="44.40996" lon="7.06125">
        <ele>2233</ele>
        <time>2012-08-09T10:56:05Z</time>
      </trkpt>
      <trkpt lat="44.40972" lon="7.06165">
        <ele>2236</ele>
        <time>2012-08-09T10:56:50Z</time>
      </trkpt>
      <trkpt lat="44.40969" lon="7.06174">
        <ele>2234</ele>
        <time>2012-08-09T10:56:57Z</time>
      </trkpt>
      <trkpt lat="44.40966" lon="7.06181">
        <ele>2235</ele>
        <time>2012-08-09T10:56:59Z</time>
      </trkpt>
      <trkpt lat="44.40961" lon="7.06191">
        <ele>2233</ele>
        <time>2012-08-09T10:57:01Z</time>
      </trkpt>
      <trkpt lat="44.40923" lon="7.06261">
        <ele>2249</ele>
        <time>2012-08-09T10:59:04Z</time>
      </trkpt>
      <trkpt lat="44.40923" lon="7.06268">
        <ele>2250</ele>
        <time>2012-08-09T10:59:15Z</time>
      </trkpt>
      <trkpt lat="44.4094" lon="7.06293">
        <ele>2246</ele>
        <time>2012-08-09T10:59:55Z</time>
      </trkpt>
      <trkpt lat="44.40925" lon="7.0634">
        <ele>2234</ele>
        <time>2012-08-09T11:00:13Z</time>
      </trkpt>
      <trkpt lat="44.40925" lon="7.0641">
        <ele>2234</ele>
        <time>2012-08-09T11:00:51Z</time>
      </trkpt>
      <trkpt lat="44.40923" lon="7.06414">
        <ele>2232</ele>
        <time>2012-08-09T11:00:53Z</time>
      </trkpt>
      <trkpt lat="44.40884" lon="7.06452">
        <ele>2235</ele>
        <time>2012-08-09T11:01:35Z</time>
      </trkpt>
      <trkpt lat="44.40882" lon="7.06451">
        <ele>2235</ele>
        <time>2012-08-09T11:01:36Z</time>
      </trkpt>
      <trkpt lat="44.40805" lon="7.06449">
        <ele>2233</ele>
        <time>2012-08-09T11:02:11Z</time>
      </trkpt>
      <trkpt lat="44.40802" lon="7.06445">
        <ele>2236</ele>
        <time>2012-08-09T11:02:14Z</time>
      </trkpt>
      <trkpt lat="44.40805" lon="7.06436">
        <ele>2233</ele>
        <time>2012-08-09T11:02:25Z</time>
      </trkpt>
      <trkpt lat="44.40801" lon="7.06432">
        <ele>2234</ele>
        <time>2012-08-09T11:02:31Z</time>
      </trkpt>
      <trkpt lat="44.40793" lon="7.06422">
        <ele>2235</ele>
        <time>2012-08-09T11:02:40Z</time>
      </trkpt>
      <trkpt lat="44.40787" lon="7.06395">
        <ele>2235</ele>
        <time>2012-08-09T11:02:59Z</time>
      </trkpt>
      <trkpt lat="44.40758" lon="7.06379">
        <ele>2243</ele>
        <time>2012-08-09T11:04:01Z</time>
      </trkpt>
      <trkpt lat="44.40757" lon="7.06377">
        <ele>2241</ele>
        <time>2012-08-09T11:04:05Z</time>
      </trkpt>
      <trkpt lat="44.40757" lon="7.06352">
        <ele>2254.4</ele>
        <time>2012-08-09T11:04:54Z</time>
      </trkpt>
      <trkpt lat="44.40744" lon="7.06325">
        <ele>2251</ele>
        <time>2012-08-09T11:05:30Z</time>
      </trkpt>
      <trkpt lat="44.40743" lon="7.06298">
        <ele>2254</ele>
        <time>2012-08-09T11:05:51Z</time>
      </trkpt>
      <trkpt lat="44.40717" lon="7.06192">
        <ele>2264</ele>
        <time>2012-08-09T11:07:26Z</time>
      </trkpt>
      <trkpt lat="44.40712" lon="7.06166">
        <ele>2264</ele>
        <time>2012-08-09T11:07:44Z</time>
      </trkpt>
      <trkpt lat="44.40701" lon="7.06145">
        <ele>2272</ele>
        <time>2012-08-09T11:08:37Z</time>
      </trkpt>
      <trkpt lat="44.40693" lon="7.06145">
        <ele>2274</ele>
        <time>2012-08-09T11:08:58Z</time>
      </trkpt>
      <trkpt lat="44.40692" lon="7.06145">
        <ele>2272</ele>
        <time>2012-08-09T11:09:00Z</time>
      </trkpt>
      <trkpt lat="44.40682" lon="7.06145">
        <ele>2277</ele>
        <time>2012-08-09T11:09:25Z</time>
      </trkpt>
      <trkpt lat="44.40669" lon="7.06099">
        <ele>2287</ele>
        <time>2012-08-09T11:10:26Z</time>
      </trkpt>
      <trkpt lat="44.40658" lon="7.06049">
        <ele>2287</ele>
        <time>2012-08-09T11:11:08Z</time>
      </trkpt>
      <trkpt lat="44.40657" lon="7.06042">
        <ele>2285</ele>
        <time>2012-08-09T11:11:11Z</time>
      </trkpt>
      <trkpt lat="44.40651" lon="7.06006">
        <ele>2290</ele>
        <time>2012-08-09T12:12:07Z</time>
      </trkpt>
      <trkpt lat="44.40654" lon="7.05998">
        <ele>2289</ele>
        <time>2012-08-09T12:12:50Z</time>
      </trkpt>
      <trkpt lat="44.40658" lon="7.05986">
        <ele>2287</ele>
        <time>2012-08-09T12:12:53Z</time>
      </trkpt>
      <trkpt lat="44.40664" lon="7.05979">
        <ele>2286</ele>
        <time>2012-08-09T12:12:55Z</time>
      </trkpt>
      <trkpt lat="44.40671" lon="7.05944">
        <ele>2289</ele>
        <time>2012-08-09T12:13:05Z</time>
      </trkpt>
      <trkpt lat="44.40672" lon="7.05939">
        <ele>2287</ele>
        <time>2012-08-09T12:13:06Z</time>
      </trkpt>
      <trkpt lat="44.40666" lon="7.05919">
        <ele>2288</ele>
        <time>2012-08-09T12:13:59Z</time>
      </trkpt>
      <trkpt lat="44.40646" lon="7.05858">
        <ele>2272</ele>
        <time>2012-08-09T12:14:26Z</time>
      </trkpt>
      <trkpt lat="44.40646" lon="7.05844">
        <ele>2272</ele>
        <time>2012-08-09T12:14:30Z</time>
      </trkpt>
      <trkpt lat="44.40647" lon="7.05837">
        <ele>2267</ele>
        <time>2012-08-09T12:14:32Z</time>
      </trkpt>
      <trkpt lat="44.40648" lon="7.05831">
        <ele>2266</ele>
        <time>2012-08-09T12:14:35Z</time>
      </trkpt>
      <trkpt lat="44.40648" lon="7.05827">
        <ele>2268</ele>
        <time>2012-08-09T12:14:37Z</time>
      </trkpt>
      <trkpt lat="44.40648" lon="7.05824">
        <ele>2267</ele>
        <time>2012-08-09T12:14:39Z</time>
      </trkpt>
      <trkpt lat="44.40644" lon="7.05818">
        <ele>2267</ele>
        <time>2012-08-09T12:14:43Z</time>
      </trkpt>
      <trkpt lat="44.40636" lon="7.05799">
        <ele>2261</ele>
        <time>2012-08-09T12:14:52Z</time>
      </trkpt>
      <trkpt lat="44.40637" lon="7.05757">
        <ele>2255</ele>
        <time>2012-08-09T12:15:09Z</time>
      </trkpt>
      <trkpt lat="44.40643" lon="7.05636">
        <ele>2225</ele>
        <time>2012-08-09T12:17:03Z</time>
      </trkpt>
      <trkpt lat="44.40641" lon="7.0559">
        <ele>2208</ele>
        <time>2012-08-09T12:17:44Z</time>
      </trkpt>
      <trkpt lat="44.40641" lon="7.05549">
        <ele>2195</ele>
        <time>2012-08-09T12:18:18Z</time>
      </trkpt>
      <trkpt lat="44.40652" lon="7.05517">
        <ele>2188</ele>
        <time>2012-08-09T12:18:29Z</time>
      </trkpt>
      <trkpt lat="44.40655" lon="7.05513">
        <ele>2186</ele>
        <time>2012-08-09T12:18:45Z</time>
      </trkpt>
      <trkpt lat="44.40656" lon="7.05512">
        <ele>2183</ele>
        <time>2012-08-09T12:18:46Z</time>
      </trkpt>
      <trkpt lat="44.40669" lon="7.05545">
        <ele>2176</ele>
        <time>2012-08-09T12:19:59Z</time>
      </trkpt>
      <trkpt lat="44.40672" lon="7.05539">
        <ele>2176</ele>
        <time>2012-08-09T12:20:02Z</time>
      </trkpt>
      <trkpt lat="44.40675" lon="7.05524">
        <ele>2171</ele>
        <time>2012-08-09T12:20:06Z</time>
      </trkpt>
      <trkpt lat="44.40678" lon="7.05517">
        <ele>2169</ele>
        <time>2012-08-09T12:20:08Z</time>
      </trkpt>
      <trkpt lat="44.40679" lon="7.05505">
        <ele>2167</ele>
        <time>2012-08-09T12:20:12Z</time>
      </trkpt>
      <trkpt lat="44.40691" lon="7.05435">
        <ele>2149</ele>
        <time>2012-08-09T12:21:07Z</time>
      </trkpt>
      <trkpt lat="44.40707" lon="7.05384">
        <ele>2129</ele>
        <time>2012-08-09T12:21:45Z</time>
      </trkpt>
      <trkpt lat="44.40708" lon="7.05376">
        <ele>2124</ele>
        <time>2012-08-09T12:22:12Z</time>
      </trkpt>
      <trkpt lat="44.40712" lon="7.0537">
        <ele>2127</ele>
        <time>2012-08-09T12:22:15Z</time>
      </trkpt>
      <trkpt lat="44.40719" lon="7.05358">
        <ele>2117</ele>
        <time>2012-08-09T12:22:36Z</time>
      </trkpt>
      <trkpt lat="44.40709" lon="7.05339">
        <ele>2114</ele>
        <time>2012-08-09T12:22:54Z</time>
      </trkpt>
      <trkpt lat="44.40706" lon="7.05332">
        <ele>2109</ele>
        <time>2012-08-09T12:23:04Z</time>
      </trkpt>
      <trkpt lat="44.40704" lon="7.05312">
        <ele>2105</ele>
        <time>2012-08-09T12:23:12Z</time>
      </trkpt>
      <trkpt lat="44.40716" lon="7.05243">
        <ele>2087</ele>
        <time>2012-08-09T12:23:43Z</time>
      </trkpt>
      <trkpt lat="44.40695" lon="7.05213">
        <ele>2073</ele>
        <time>2012-08-09T12:24:39Z</time>
      </trkpt>
      <trkpt lat="44.40707" lon="7.052">
        <ele>2067</ele>
        <time>2012-08-09T12:25:03Z</time>
      </trkpt>
      <trkpt lat="44.40701" lon="7.05177">
        <ele>2060</ele>
        <time>2012-08-09T12:25:15Z</time>
      </trkpt>
      <trkpt lat="44.40713" lon="7.05172">
        <ele>2053.3</ele>
        <time>2012-08-09T12:25:21Z</time>
      </trkpt>
      <trkpt lat="44.40737" lon="7.05174">
        <ele>2049</ele>
        <time>2012-08-09T12:25:33Z</time>
      </trkpt>
      <trkpt lat="44.40735" lon="7.05165">
        <ele>2051</ele>
        <time>2012-08-09T12:25:37Z</time>
      </trkpt>
      <trkpt lat="44.40722" lon="7.05156">
        <ele>2050</ele>
        <time>2012-08-09T12:25:44Z</time>
      </trkpt>
      <trkpt lat="44.4071" lon="7.05139">
        <ele>2044.6</ele>
        <time>2012-08-09T12:25:50Z</time>
      </trkpt>
      <trkpt lat="44.407" lon="7.05076">
        <ele>2033</ele>
        <time>2012-08-09T12:26:04Z</time>
      </trkpt>
      <trkpt lat="44.40722" lon="7.05028">
        <ele>2028</ele>
        <time>2012-08-09T12:28:13Z</time>
      </trkpt>
      <trkpt lat="44.40729" lon="7.04981">
        <ele>2016.3</ele>
        <time>2012-08-09T12:28:24Z</time>
      </trkpt>
      <trkpt lat="44.40737" lon="7.04975">
        <ele>2014.7</ele>
        <time>2012-08-09T12:28:26Z</time>
      </trkpt>
      <trkpt lat="44.40776" lon="7.04968">
        <ele>2013</ele>
        <time>2012-08-09T12:28:35Z</time>
      </trkpt>
      <trkpt lat="44.40796" lon="7.04921">
        <ele>2009</ele>
        <time>2012-08-09T12:28:46Z</time>
      </trkpt>
      <trkpt lat="44.408" lon="7.04917">
        <ele>2004</ele>
        <time>2012-08-09T12:28:48Z</time>
      </trkpt>
      <trkpt lat="44.40802" lon="7.04916">
        <ele>2006</ele>
        <time>2012-08-09T12:28:49Z</time>
      </trkpt>
      <trkpt lat="44.40804" lon="7.04914">
        <ele>2004</ele>
        <time>2012-08-09T12:28:50Z</time>
      </trkpt>
      <trkpt lat="44.40807" lon="7.04912">
        <ele>1999.5</ele>
        <time>2012-08-09T12:28:52Z</time>
      </trkpt>
      <trkpt lat="44.40869" lon="7.04902">
        <ele>1987</ele>
        <time>2012-08-09T12:29:28Z</time>
      </trkpt>
      <trkpt lat="44.40877" lon="7.0492">
        <ele>1987</ele>
        <time>2012-08-09T12:31:08Z</time>
      </trkpt>
      <trkpt lat="44.4088" lon="7.04918">
        <ele>1988</ele>
        <time>2012-08-09T12:31:35Z</time>
      </trkpt>
      <trkpt lat="44.40882" lon="7.04917">
        <ele>1986</ele>
        <time>2012-08-09T12:31:37Z</time>
      </trkpt>
      <trkpt lat="44.40892" lon="7.04912">
        <ele>1984</ele>
        <time>2012-08-09T12:31:52Z</time>
      </trkpt>
      <trkpt lat="44.40897" lon="7.04909">
        <ele>1982</ele>
        <time>2012-08-09T12:31:55Z</time>
      </trkpt>
      <trkpt lat="44.40907" lon="7.04907">
        <ele>1980</ele>
        <time>2012-08-09T12:32:07Z</time>
      </trkpt>
      <trkpt lat="44.40911" lon="7.04904">
        <ele>1980</ele>
        <time>2012-08-09T12:32:09Z</time>
      </trkpt>
      <trkpt lat="44.40919" lon="7.04905">
        <ele>1976</ele>
        <time>2012-08-09T12:32:15Z</time>
      </trkpt>
      <trkpt lat="44.4094" lon="7.04893">
        <ele>1969</ele>
        <time>2012-08-09T12:32:29Z</time>
      </trkpt>
      <trkpt lat="44.40952" lon="7.0487">
        <ele>1967</ele>
        <time>2012-08-09T12:32:38Z</time>
      </trkpt>
      <trkpt lat="44.40972" lon="7.04856">
        <ele>1963</ele>
        <time>2012-08-09T12:32:47Z</time>
      </trkpt>
      <trkpt lat="44.40995" lon="7.04847">
        <ele>1960</ele>
        <time>2012-08-09T12:32:59Z</time>
      </trkpt>
      <trkpt lat="44.40999" lon="7.04827">
        <ele>1959</ele>
        <time>2012-08-09T12:33:05Z</time>
      </trkpt>
      <trkpt lat="44.41005" lon="7.04764">
        <ele>1949</ele>
        <time>2012-08-09T12:33:26Z</time>
      </trkpt>
      <trkpt lat="44.41023" lon="7.04729">
        <ele>1945</ele>
        <time>2012-08-09T12:33:40Z</time>
      </trkpt>
      <trkpt lat="44.41036" lon="7.04724">
        <ele>1940</ele>
        <time>2012-08-09T12:33:46Z</time>
      </trkpt>
      <trkpt lat="44.41038" lon="7.04721">
        <ele>1942</ele>
        <time>2012-08-09T12:33:48Z</time>
      </trkpt>
      <trkpt lat="44.41038" lon="7.04718">
        <ele>1940</ele>
        <time>2012-08-09T12:33:49Z</time>
      </trkpt>
      <trkpt lat="44.41024" lon="7.04701">
        <ele>1937</ele>
        <time>2012-08-09T12:37:32Z</time>
      </trkpt>
      <trkpt lat="44.41027" lon="7.04704">
        <ele>1938</ele>
        <time>2012-08-09T12:37:38Z</time>
      </trkpt>
      <trkpt lat="44.41033" lon="7.04704">
        <ele>1934</ele>
        <time>2012-08-09T12:37:47Z</time>
      </trkpt>
      <trkpt lat="44.41041" lon="7.04703">
        <ele>1929</ele>
        <time>2012-08-09T12:37:49Z</time>
      </trkpt>
      <trkpt lat="44.41082" lon="7.04698">
        <ele>1929</ele>
        <time>2012-08-09T12:38:04Z</time>
      </trkpt>
      <trkpt lat="44.41058" lon="7.04664">
        <ele>1926</ele>
        <time>2012-08-09T12:38:12Z</time>
      </trkpt>
      <trkpt lat="44.41048" lon="7.04631">
        <ele>1914.5</ele>
        <time>2012-08-09T12:38:17Z</time>
      </trkpt>
      <trkpt lat="44.41034" lon="7.04609">
        <ele>1920</ele>
        <time>2012-08-09T12:38:21Z</time>
      </trkpt>
      <trkpt lat="44.41006" lon="7.04584">
        <ele>1919</ele>
        <time>2012-08-09T12:38:31Z</time>
      </trkpt>
      <trkpt lat="44.41017" lon="7.0458">
        <ele>1917</ele>
        <time>2012-08-09T12:38:34Z</time>
      </trkpt>
      <trkpt lat="44.41029" lon="7.04582">
        <ele>1914</ele>
        <time>2012-08-09T12:38:36Z</time>
      </trkpt>
      <trkpt lat="44.4106" lon="7.04589">
        <ele>1910</ele>
        <time>2012-08-09T12:38:42Z</time>
      </trkpt>
      <trkpt lat="44.41078" lon="7.04615">
        <ele>1905</ele>
        <time>2012-08-09T12:38:47Z</time>
      </trkpt>
      <trkpt lat="44.41086" lon="7.04629">
        <ele>1902</ele>
        <time>2012-08-09T12:38:49Z</time>
      </trkpt>
      <trkpt lat="44.41114" lon="7.04642">
        <ele>1896</ele>
        <time>2012-08-09T12:38:55Z</time>
      </trkpt>
      <trkpt lat="44.41143" lon="7.04605">
        <ele>1891</ele>
        <time>2012-08-09T12:39:03Z</time>
      </trkpt>
      <trkpt lat="44.41157" lon="7.04607">
        <ele>1889</ele>
        <time>2012-08-09T12:39:05Z</time>
      </trkpt>
      <trkpt lat="44.41183" lon="7.0461">
        <ele>1885</ele>
        <time>2012-08-09T12:39:09Z</time>
      </trkpt>
      <trkpt lat="44.41201" lon="7.04571">
        <ele>1878</ele>
        <time>2012-08-09T12:39:15Z</time>
      </trkpt>
      <trkpt lat="44.4121" lon="7.04567">
        <ele>1878</ele>
        <time>2012-08-09T12:39:17Z</time>
      </trkpt>
      <trkpt lat="44.41322" lon="7.04627">
        <ele>1857</ele>
        <time>2012-08-09T12:39:39Z</time>
      </trkpt>
      <trkpt lat="44.41353" lon="7.04668">
        <ele>1846</ele>
        <time>2012-08-09T12:39:48Z</time>
      </trkpt>
      <trkpt lat="44.41355" lon="7.04673">
        <ele>1843</ele>
        <time>2012-08-09T12:39:49Z</time>
      </trkpt>
      <trkpt lat="44.41379" lon="7.0469">
        <ele>1840</ele>
        <time>2012-08-09T12:39:55Z</time>
      </trkpt>
      <trkpt lat="44.41509" lon="7.04731">
        <ele>1813</ele>
        <time>2012-08-09T12:40:22Z</time>
      </trkpt>
      <trkpt lat="44.41544" lon="7.04719">
        <ele>1804</ele>
        <time>2012-08-09T12:40:29Z</time>
      </trkpt>
      <trkpt lat="44.41558" lon="7.04733">
        <ele>1802</ele>
        <time>2012-08-09T12:40:32Z</time>
      </trkpt>
      <trkpt lat="44.41572" lon="7.04747">
        <ele>1797</ele>
        <time>2012-08-09T12:40:35Z</time>
      </trkpt>
      <trkpt lat="44.41586" lon="7.04756">
        <ele>1796</ele>
        <time>2012-08-09T12:40:38Z</time>
      </trkpt>
      <trkpt lat="44.41595" lon="7.04759">
        <ele>1792</ele>
        <time>2012-08-09T12:40:40Z</time>
      </trkpt>
      <trkpt lat="44.41603" lon="7.04763">
        <ele>1792</ele>
        <time>2012-08-09T12:40:42Z</time>
      </trkpt>
      <trkpt lat="44.41607" lon="7.04767">
        <ele>1790</ele>
        <time>2012-08-09T12:40:43Z</time>
      </trkpt>
      <trkpt lat="44.41628" lon="7.04789">
        <ele>1784</ele>
        <time>2012-08-09T12:40:48Z</time>
      </trkpt>
      <trkpt lat="44.41732" lon="7.04825">
        <ele>1750</ele>
        <time>2012-08-09T12:41:08Z</time>
      </trkpt>
      <trkpt lat="44.41765" lon="7.04854">
        <ele>1758</ele>
        <time>2012-08-09T12:41:15Z</time>
      </trkpt>
      <trkpt lat="44.41772" lon="7.04859">
        <ele>1757</ele>
        <time>2012-08-09T12:41:17Z</time>
      </trkpt>
      <trkpt lat="44.41793" lon="7.04876">
        <ele>1751</ele>
        <time>2012-08-09T12:41:23Z</time>
      </trkpt>
      <trkpt lat="44.41795" lon="7.04879">
        <ele>1749</ele>
        <time>2012-08-09T12:41:25Z</time>
      </trkpt>
      <trkpt lat="44.41738" lon="7.04754">
        <ele>1737</ele>
        <time>2012-08-09T12:41:50Z</time>
      </trkpt>
      <trkpt lat="44.41813" lon="7.04825">
        <ele>1722</ele>
        <time>2012-08-09T12:42:10Z</time>
      </trkpt>
      <trkpt lat="44.41785" lon="7.04717">
        <ele>1713</ele>
        <time>2012-08-09T12:42:29Z</time>
      </trkpt>
      <trkpt lat="44.41825" lon="7.04747">
        <ele>1708</ele>
        <time>2012-08-09T12:42:39Z</time>
      </trkpt>
      <trkpt lat="44.41843" lon="7.04757">
        <ele>1703</ele>
        <time>2012-08-09T12:42:44Z</time>
      </trkpt>
      <trkpt lat="44.41928" lon="7.04727">
        <ele>1696</ele>
        <time>2012-08-09T12:43:00Z</time>
      </trkpt>
      <trkpt lat="44.41957" lon="7.04783">
        <ele>1691</ele>
        <time>2012-08-09T12:43:09Z</time>
      </trkpt>
      <trkpt lat="44.41971" lon="7.04797">
        <ele>1689</ele>
        <time>2012-08-09T12:43:12Z</time>
      </trkpt>
      <trkpt lat="44.42112" lon="7.049">
        <ele>1677</ele>
        <time>2012-08-09T12:43:40Z</time>
      </trkpt>
      <trkpt lat="44.42124" lon="7.04912">
        <ele>1675</ele>
        <time>2012-08-09T12:43:43Z</time>
      </trkpt>
      <trkpt lat="44.42132" lon="7.04919">
        <ele>1676</ele>
        <time>2012-08-09T12:43:45Z</time>
      </trkpt>
      <trkpt lat="44.42136" lon="7.0492">
        <ele>1675</ele>
        <time>2012-08-09T12:43:46Z</time>
      </trkpt>
      <trkpt lat="44.42142" lon="7.04921">
        <ele>1675</ele>
        <time>2012-08-09T12:43:48Z</time>
      </trkpt>
      <trkpt lat="44.42146" lon="7.0492">
        <ele>1674</ele>
        <time>2012-08-09T12:43:50Z</time>
      </trkpt>
      <trkpt lat="44.42152" lon="7.04908">
        <ele>1674</ele>
        <time>2012-08-09T12:44:24Z</time>
      </trkpt>
      <trkpt lat="44.42168" lon="7.04903">
        <ele>1673</ele>
        <time>2012-08-09T12:45:05Z</time>
      </trkpt>
      <trkpt lat="44.42172" lon="7.04909">
        <ele>1674</ele>
        <time>2012-08-09T12:45:07Z</time>
      </trkpt>
      <trkpt lat="44.42174" lon="7.04913">
        <ele>1673</ele>
        <time>2012-08-09T12:45:08Z</time>
      </trkpt>
      <trkpt lat="44.42191" lon="7.04934">
        <ele>1672</ele>
        <time>2012-08-09T12:45:15Z</time>
      </trkpt>
      <trkpt lat="44.42198" lon="7.04939">
        <ele>1672</ele>
        <time>2012-08-09T12:45:17Z</time>
      </trkpt>
      <trkpt lat="44.42205" lon="7.04944">
        <ele>1670</ele>
        <time>2012-08-09T12:45:19Z</time>
      </trkpt>
      <trkpt lat="44.42213" lon="7.04949">
        <ele>1671</ele>
        <time>2012-08-09T12:45:21Z</time>
      </trkpt>
      <trkpt lat="44.42221" lon="7.04955">
        <ele>1671</ele>
        <time>2012-08-09T12:45:23Z</time>
      </trkpt>
      <trkpt lat="44.42229" lon="7.0496">
        <ele>1671</ele>
        <time>2012-08-09T12:45:25Z</time>
      </trkpt>
      <trkpt lat="44.42245" lon="7.04981">
        <ele>1670</ele>
        <time>2012-08-09T12:45:30Z</time>
      </trkpt>
      <trkpt lat="44.42251" lon="7.05004">
        <ele>1670</ele>
        <time>2012-08-09T12:45:34Z</time>
      </trkpt>
      <trkpt lat="44.42262" lon="7.05028">
        <ele>1668</ele>
        <time>2012-08-09T12:45:39Z</time>
      </trkpt>
      <trkpt lat="44.42305" lon="7.05043">
        <ele>1663</ele>
        <time>2012-08-09T12:45:51Z</time>
      </trkpt>
      <trkpt lat="44.42323" lon="7.05052">
        <ele>1661</ele>
        <time>2012-08-09T12:45:55Z</time>
      </trkpt>
      <trkpt lat="44.42362" lon="7.05081">
        <ele>1655</ele>
        <time>2012-08-09T12:46:05Z</time>
      </trkpt>
      <trkpt lat="44.42379" lon="7.05094">
        <ele>1652</ele>
        <time>2012-08-09T12:46:09Z</time>
      </trkpt>
      <trkpt lat="44.42402" lon="7.05124">
        <ele>1648</ele>
        <time>2012-08-09T12:46:15Z</time>
      </trkpt>
      <trkpt lat="44.42423" lon="7.05139">
        <ele>1646</ele>
        <time>2012-08-09T12:46:19Z</time>
      </trkpt>
      <trkpt lat="44.42437" lon="7.05144">
        <ele>1644</ele>
        <time>2012-08-09T12:46:21Z</time>
      </trkpt>
      <trkpt lat="44.42454" lon="7.05149">
        <ele>1643</ele>
        <time>2012-08-09T12:46:23Z</time>
      </trkpt>
      <trkpt lat="44.42608" lon="7.05189">
        <ele>1629</ele>
        <time>2012-08-09T12:46:43Z</time>
      </trkpt>
      <trkpt lat="44.42627" lon="7.05187">
        <ele>1627</ele>
        <time>2012-08-09T12:46:45Z</time>
      </trkpt>
      <trkpt lat="44.42649" lon="7.05188">
        <ele>1625</ele>
        <time>2012-08-09T12:46:47Z</time>
      </trkpt>
      <trkpt lat="44.42705" lon="7.05203">
        <ele>1620</ele>
        <time>2012-08-09T12:46:53Z</time>
      </trkpt>
      <trkpt lat="44.42728" lon="7.05215">
        <ele>1616</ele>
        <time>2012-08-09T12:46:56Z</time>
      </trkpt>
      <trkpt lat="44.42739" lon="7.05225">
        <ele>1616</ele>
        <time>2012-08-09T12:46:58Z</time>
      </trkpt>
      <trkpt lat="44.4276" lon="7.05322">
        <ele>1611</ele>
        <time>2012-08-09T12:47:09Z</time>
      </trkpt>
      <trkpt lat="44.42782" lon="7.05348">
        <ele>1609</ele>
        <time>2012-08-09T12:47:13Z</time>
      </trkpt>
      <trkpt lat="44.42867" lon="7.05353">
        <ele>1604</ele>
        <time>2012-08-09T12:47:23Z</time>
      </trkpt>
      <trkpt lat="44.42903" lon="7.05367">
        <ele>1603</ele>
        <time>2012-08-09T12:47:27Z</time>
      </trkpt>
      <trkpt lat="44.43227" lon="7.05389">
        <ele>1570</ele>
        <time>2012-08-09T12:48:05Z</time>
      </trkpt>
      <trkpt lat="44.43286" lon="7.05401">
        <ele>1574</ele>
        <time>2012-08-09T12:48:13Z</time>
      </trkpt>
      <trkpt lat="44.43314" lon="7.05422">
        <ele>1574</ele>
        <time>2012-08-09T12:48:25Z</time>
      </trkpt>
      <trkpt lat="44.43362" lon="7.05451">
        <ele>1567</ele>
        <time>2012-08-09T12:48:39Z</time>
      </trkpt>
      <trkpt lat="44.43419" lon="7.05497">
        <ele>1565</ele>
        <time>2012-08-09T12:50:05Z</time>
      </trkpt>
      <trkpt lat="44.4344" lon="7.05512">
        <ele>1562</ele>
        <time>2012-08-09T12:50:08Z</time>
      </trkpt>
      <trkpt lat="44.43485" lon="7.05573">
        <ele>1561</ele>
        <time>2012-08-09T12:50:20Z</time>
      </trkpt>
      <trkpt lat="44.43463" lon="7.05563">
        <ele>1560</ele>
        <time>2012-08-09T12:50:39Z</time>
      </trkpt>
      <trkpt lat="44.43444" lon="7.05552">
        <ele>1558</ele>
        <time>2012-08-09T12:50:44Z</time>
      </trkpt>
      <trkpt lat="44.43467" lon="7.05583">
        <ele>1562</ele>
        <time>2012-08-09T12:50:54Z</time>
      </trkpt>
      <trkpt lat="44.43526" lon="7.05635">
        <ele>1561</ele>
        <time>2012-08-09T12:51:05Z</time>
      </trkpt>
      <trkpt lat="44.43622" lon="7.05717">
        <ele>1550</ele>
        <time>2012-08-09T12:51:16Z</time>
      </trkpt>
      <trkpt lat="44.4366" lon="7.05731">
        <ele>1548</ele>
        <time>2012-08-09T12:51:20Z</time>
      </trkpt>
      <trkpt lat="44.43694" lon="7.05729">
        <ele>1543</ele>
        <time>2012-08-09T12:51:23Z</time>
      </trkpt>
      <trkpt lat="44.43755" lon="7.05728">
        <ele>1537</ele>
        <time>2012-08-09T12:51:29Z</time>
      </trkpt>
      <trkpt lat="44.43831" lon="7.05688">
        <ele>1527</ele>
        <time>2012-08-09T12:51:38Z</time>
      </trkpt>
      <trkpt lat="44.43874" lon="7.05698">
        <ele>1525</ele>
        <time>2012-08-09T12:51:43Z</time>
      </trkpt>
      <trkpt lat="44.43937" lon="7.05758">
        <ele>1515</ele>
        <time>2012-08-09T12:51:52Z</time>
      </trkpt>
      <trkpt lat="44.43942" lon="7.05769">
        <ele>1512</ele>
        <time>2012-08-09T12:51:54Z</time>
      </trkpt>
      <trkpt lat="44.43882" lon="7.05751">
        <ele>1509</ele>
        <time>2012-08-09T12:52:03Z</time>
      </trkpt>
      <trkpt lat="44.43859" lon="7.05762">
        <ele>1505</ele>
        <time>2012-08-09T12:52:06Z</time>
      </trkpt>
      <trkpt lat="44.43856" lon="7.05778">
        <ele>1506</ele>
        <time>2012-08-09T12:52:08Z</time>
      </trkpt>
      <trkpt lat="44.43901" lon="7.05859">
        <ele>1503</ele>
        <time>2012-08-09T12:52:18Z</time>
      </trkpt>
      <trkpt lat="44.43933" lon="7.05883">
        <ele>1503</ele>
        <time>2012-08-09T12:52:23Z</time>
      </trkpt>
      <trkpt lat="44.43968" lon="7.05928">
        <ele>1499</ele>
        <time>2012-08-09T12:52:30Z</time>
      </trkpt>
      <trkpt lat="44.43984" lon="7.0593">
        <ele>1497</ele>
        <time>2012-08-09T12:52:32Z</time>
      </trkpt>
      <trkpt lat="44.44005" lon="7.05931">
        <ele>1497</ele>
        <time>2012-08-09T12:52:34Z</time>
      </trkpt>
      <trkpt lat="44.44029" lon="7.05933">
        <ele>1494</ele>
        <time>2012-08-09T12:52:36Z</time>
      </trkpt>
      <trkpt lat="44.44042" lon="7.05936">
        <ele>1494</ele>
        <time>2012-08-09T12:52:37Z</time>
      </trkpt>
      <trkpt lat="44.44054" lon="7.05941">
        <ele>1491</ele>
        <time>2012-08-09T12:52:38Z</time>
      </trkpt>
      <trkpt lat="44.44078" lon="7.05953">
        <ele>1490</ele>
        <time>2012-08-09T12:52:40Z</time>
      </trkpt>
      <trkpt lat="44.44122" lon="7.05975">
        <ele>1486</ele>
        <time>2012-08-09T12:52:44Z</time>
      </trkpt>
      <trkpt lat="44.44157" lon="7.05985">
        <ele>1481</ele>
        <time>2012-08-09T12:52:48Z</time>
      </trkpt>
      <trkpt lat="44.44185" lon="7.06045">
        <ele>1475</ele>
        <time>2012-08-09T12:52:55Z</time>
      </trkpt>
      <trkpt lat="44.4424" lon="7.06095">
        <ele>1467</ele>
        <time>2012-08-09T12:53:02Z</time>
      </trkpt>
      <trkpt lat="44.44252" lon="7.06149">
        <ele>1463</ele>
        <time>2012-08-09T12:53:07Z</time>
      </trkpt>
      <trkpt lat="44.44238" lon="7.06205">
        <ele>1460</ele>
        <time>2012-08-09T12:53:12Z</time>
      </trkpt>
      <trkpt lat="44.44232" lon="7.06226">
        <ele>1458</ele>
        <time>2012-08-09T12:53:14Z</time>
      </trkpt>
      <trkpt lat="44.44221" lon="7.06244">
        <ele>1456</ele>
        <time>2012-08-09T12:53:16Z</time>
      </trkpt>
      <trkpt lat="44.44253" lon="7.06301">
        <ele>1452</ele>
        <time>2012-08-09T12:53:22Z</time>
      </trkpt>
      <trkpt lat="44.44357" lon="7.06418">
        <ele>1437</ele>
        <time>2012-08-09T12:53:34Z</time>
      </trkpt>
      <trkpt lat="44.44376" lon="7.06442">
        <ele>1433</ele>
        <time>2012-08-09T12:53:36Z</time>
      </trkpt>
      <trkpt lat="44.44416" lon="7.06482">
        <ele>1427</ele>
        <time>2012-08-09T12:53:40Z</time>
      </trkpt>
      <trkpt lat="44.44442" lon="7.06493">
        <ele>1422</ele>
        <time>2012-08-09T12:53:42Z</time>
      </trkpt>
      <trkpt lat="44.44469" lon="7.06506">
        <ele>1419</ele>
        <time>2012-08-09T12:53:44Z</time>
      </trkpt>
      <trkpt lat="44.44503" lon="7.06529">
        <ele>1414</ele>
        <time>2012-08-09T12:53:47Z</time>
      </trkpt>
      <trkpt lat="44.44532" lon="7.06548">
        <ele>1407</ele>
        <time>2012-08-09T12:53:50Z</time>
      </trkpt>
      <trkpt lat="44.44546" lon="7.06562">
        <ele>1403</ele>
        <time>2012-08-09T12:53:52Z</time>
      </trkpt>
      <trkpt lat="44.4462" lon="7.06681">
        <ele>1392</ele>
        <time>2012-08-09T12:54:03Z</time>
      </trkpt>
      <trkpt lat="44.44627" lon="7.06688">
        <ele>1390</ele>
        <time>2012-08-09T12:54:04Z</time>
      </trkpt>
      <trkpt lat="44.44674" lon="7.06711">
        <ele>1384</ele>
        <time>2012-08-09T12:54:09Z</time>
      </trkpt>
      <trkpt lat="44.4473" lon="7.06788">
        <ele>1381</ele>
        <time>2012-08-09T12:54:17Z</time>
      </trkpt>
      <trkpt lat="44.44764" lon="7.06839">
        <ele>1376</ele>
        <time>2012-08-09T12:54:22Z</time>
      </trkpt>
      <trkpt lat="44.44816" lon="7.06892">
        <ele>1370</ele>
        <time>2012-08-09T12:54:28Z</time>
      </trkpt>
      <trkpt lat="44.44862" lon="7.0697">
        <ele>1364</ele>
        <time>2012-08-09T12:54:35Z</time>
      </trkpt>
      <trkpt lat="44.44881" lon="7.06989">
        <ele>1361</ele>
        <time>2012-08-09T12:54:37Z</time>
      </trkpt>
      <trkpt lat="44.45065" lon="7.07093">
        <ele>1336</ele>
        <time>2012-08-09T12:54:59Z</time>
      </trkpt>
      <trkpt lat="44.45083" lon="7.07144">
        <ele>1305.7</ele>
        <time>2012-08-09T12:56:01Z</time>
      </trkpt>
      <trkpt lat="44.45089" lon="7.0716">
        <ele>1333</ele>
        <time>2012-08-09T12:56:03Z</time>
      </trkpt>
      <trkpt lat="44.45091" lon="7.0718">
        <ele>1331</ele>
        <time>2012-08-09T12:56:05Z</time>
      </trkpt>
      <trkpt lat="44.45085" lon="7.0723">
        <ele>1329</ele>
        <time>2012-08-09T12:56:10Z</time>
      </trkpt>
      <trkpt lat="44.451" lon="7.07288">
        <ele>1320</ele>
        <time>2012-08-09T12:56:16Z</time>
      </trkpt>
      <trkpt lat="44.4511" lon="7.07307">
        <ele>1318</ele>
        <time>2012-08-09T12:56:18Z</time>
      </trkpt>
      <trkpt lat="44.4513" lon="7.07339">
        <ele>1314</ele>
        <time>2012-08-09T12:56:21Z</time>
      </trkpt>
      <trkpt lat="44.45145" lon="7.07363">
        <ele>1313</ele>
        <time>2012-08-09T12:56:23Z</time>
      </trkpt>
      <trkpt lat="44.45158" lon="7.07392">
        <ele>1310</ele>
        <time>2012-08-09T12:56:25Z</time>
      </trkpt>
      <trkpt lat="44.45174" lon="7.07442">
        <ele>1307</ele>
        <time>2012-08-09T12:56:28Z</time>
      </trkpt>
      <trkpt lat="44.45256" lon="7.0758">
        <ele>1300</ele>
        <time>2012-08-09T12:56:38Z</time>
      </trkpt>
      <trkpt lat="44.45288" lon="7.07686">
        <ele>1296</ele>
        <time>2012-08-09T12:56:45Z</time>
      </trkpt>
      <trkpt lat="44.45305" lon="7.07768">
        <ele>1290</ele>
        <time>2012-08-09T12:56:50Z</time>
      </trkpt>
      <trkpt lat="44.45322" lon="7.0779">
        <ele>1291</ele>
        <time>2012-08-09T12:56:52Z</time>
      </trkpt>
      <trkpt lat="44.45362" lon="7.0784">
        <ele>1285</ele>
        <time>2012-08-09T12:56:57Z</time>
      </trkpt>
      <trkpt lat="44.45401" lon="7.07946">
        <ele>1279</ele>
        <time>2012-08-09T12:57:05Z</time>
      </trkpt>
      <trkpt lat="44.45518" lon="7.08165">
        <ele>1268</ele>
        <time>2012-08-09T12:57:26Z</time>
      </trkpt>
      <trkpt lat="44.45517" lon="7.08216">
        <ele>1270</ele>
        <time>2012-08-09T12:57:30Z</time>
      </trkpt>
      <trkpt lat="44.45502" lon="7.08264">
        <ele>1262</ele>
        <time>2012-08-09T12:57:34Z</time>
      </trkpt>
      <trkpt lat="44.45464" lon="7.08294">
        <ele>1260</ele>
        <time>2012-08-09T12:57:40Z</time>
      </trkpt>
      <trkpt lat="44.45454" lon="7.08302">
        <ele>1259</ele>
        <time>2012-08-09T12:57:42Z</time>
      </trkpt>
      <trkpt lat="44.45441" lon="7.08336">
        <ele>1258</ele>
        <time>2012-08-09T12:57:47Z</time>
      </trkpt>
      <trkpt lat="44.45463" lon="7.08479">
        <ele>1255</ele>
        <time>2012-08-09T12:58:00Z</time>
      </trkpt>
      <trkpt lat="44.45468" lon="7.08569">
        <ele>1248</ele>
        <time>2012-08-09T12:58:07Z</time>
      </trkpt>
      <trkpt lat="44.45549" lon="7.0881">
        <ele>1234</ele>
        <time>2012-08-09T12:58:29Z</time>
      </trkpt>
      <trkpt lat="44.45588" lon="7.08897">
        <ele>1228</ele>
        <time>2012-08-09T12:58:36Z</time>
      </trkpt>
      <trkpt lat="44.45667" lon="7.09018">
        <ele>1227</ele>
        <time>2012-08-09T12:58:49Z</time>
      </trkpt>
      <trkpt lat="44.45683" lon="7.09044">
        <ele>1225</ele>
        <time>2012-08-09T12:58:52Z</time>
      </trkpt>
      <trkpt lat="44.45699" lon="7.09167">
        <ele>1225</ele>
        <time>2012-08-09T12:59:05Z</time>
      </trkpt>
      <trkpt lat="44.45706" lon="7.09221">
        <ele>1222</ele>
        <time>2012-08-09T13:00:38Z</time>
      </trkpt>
      <trkpt lat="44.45699" lon="7.0922">
        <ele>1223</ele>
        <time>2012-08-09T13:00:40Z</time>
      </trkpt>
      <trkpt lat="44.45757" lon="7.09263">
        <ele>1223</ele>
        <time>2012-08-09T13:01:04Z</time>
      </trkpt>
      <trkpt lat="44.45694" lon="7.0932">
        <ele>1229</ele>
        <time>2012-08-09T13:01:37Z</time>
      </trkpt>
      <trkpt lat="44.45774" lon="7.09278">
        <ele>1242</ele>
        <time>2012-08-09T13:02:51Z</time>
      </trkpt>
      <trkpt lat="44.45818" lon="7.09309">
        <ele>1245</ele>
        <time>2012-08-09T13:03:12Z</time>
      </trkpt>
      <trkpt lat="44.45947" lon="7.09348">
        <ele>1249</ele>
        <time>2012-08-09T13:03:46Z</time>
      </trkpt>
      <trkpt lat="44.45943" lon="7.09367">
        <ele>1251</ele>
        <time>2012-08-09T13:04:08Z</time>
      </trkpt>
      <trkpt lat="44.45942" lon="7.09366">
        <ele>1251</ele>
        <time>2012-08-09T13:04:09Z</time>
      </trkpt>
      <trkpt lat="44.45934" lon="7.09363">
        <ele>1252</ele>
        <time>2012-08-09T13:04:14Z</time>
      </trkpt>
      <trkpt lat="44.45918" lon="7.09363">
        <ele>1254</ele>
        <time>2012-08-09T13:04:22Z</time>
      </trkpt>
      <trkpt lat="44.4591" lon="7.09364">
        <ele>1254</ele>
        <time>2012-08-09T13:04:24Z</time>
      </trkpt>
      <trkpt lat="44.45861" lon="7.09368">
        <ele>1257</ele>
        <time>2012-08-09T13:04:44Z</time>
      </trkpt>
      <trkpt lat="44.45984" lon="7.09403">
        <ele>1265</ele>
        <time>2012-08-09T13:06:46Z</time>
      </trkpt>
      <trkpt lat="44.46042" lon="7.09422">
        <ele>1262</ele>
        <time>2012-08-09T13:07:10Z</time>
      </trkpt>
      <trkpt lat="44.46073" lon="7.09428">
        <ele>1260</ele>
        <time>2012-08-09T13:07:13Z</time>
      </trkpt>
      <trkpt lat="44.46083" lon="7.09436">
        <ele>1257</ele>
        <time>2012-08-09T13:07:18Z</time>
      </trkpt>
      <trkpt lat="44.46101" lon="7.09429">
        <ele>1255</ele>
        <time>2012-08-09T13:07:27Z</time>
      </trkpt>
      <trkpt lat="44.46111" lon="7.09436">
        <ele>1258</ele>
        <time>2012-08-09T13:07:30Z</time>
      </trkpt>
      <trkpt lat="44.46115" lon="7.09438">
        <ele>1256</ele>
        <time>2012-08-09T13:07:32Z</time>
      </trkpt>
      <trkpt lat="44.46116" lon="7.09441">
        <ele>1257</ele>
        <time>2012-08-09T13:07:34Z</time>
      </trkpt>
      <trkpt lat="44.46123" lon="7.09459">
        <ele>1259</ele>
        <time>2012-08-09T13:07:41Z</time>
      </trkpt>
      <trkpt lat="44.46126" lon="7.09465">
        <ele>1257</ele>
        <time>2012-08-09T13:07:49Z</time>
      </trkpt>
      <trkpt lat="44.46186" lon="7.09443">
        <ele>1255</ele>
        <time>2012-08-09T13:08:10Z</time>
      </trkpt>
      <trkpt lat="44.46286" lon="7.09502">
        <ele>1234.3</ele>
        <time>2012-08-09T13:09:05Z</time>
      </trkpt>
      <trkpt lat="44.46304" lon="7.09535">
        <ele>1263</ele>
        <time>2012-08-09T13:09:26Z</time>
      </trkpt>
      <trkpt lat="44.46312" lon="7.09534">
        <ele>1267</ele>
        <time>2012-08-09T13:09:31Z</time>
      </trkpt>
      <trkpt lat="44.46315" lon="7.09533">
        <ele>1266</ele>
        <time>2012-08-09T13:09:32Z</time>
      </trkpt>
      <trkpt lat="44.46333" lon="7.09528">
        <ele>1267</ele>
        <time>2012-08-09T13:09:38Z</time>
      </trkpt>
      <trkpt lat="44.46356" lon="7.09528">
        <ele>1266</ele>
        <time>2012-08-09T13:09:47Z</time>
      </trkpt>
      <trkpt lat="44.46367" lon="7.09532">
        <ele>1269</ele>
        <time>2012-08-09T13:09:51Z</time>
      </trkpt>
      <trkpt lat="44.46387" lon="7.09542">
        <ele>1268</ele>
        <time>2012-08-09T13:09:59Z</time>
      </trkpt>
      <trkpt lat="44.46405" lon="7.09555">
        <ele>1270</ele>
        <time>2012-08-09T13:10:14Z</time>
      </trkpt>
      <trkpt lat="44.46416" lon="7.09555">
        <ele>1271</ele>
        <time>2012-08-09T13:10:21Z</time>
      </trkpt>
      <trkpt lat="44.46418" lon="7.09553">
        <ele>1271</ele>
        <time>2012-08-09T13:10:22Z</time>
      </trkpt>
      <trkpt lat="44.46484" lon="7.09558">
        <ele>1267</ele>
        <time>2012-08-09T13:10:57Z</time>
      </trkpt>
      <trkpt lat="44.46522" lon="7.09525">
        <ele>1261</ele>
        <time>2012-08-09T13:11:13Z</time>
      </trkpt>
      <trkpt lat="44.46526" lon="7.09516">
        <ele>1257</ele>
        <time>2012-08-09T13:11:16Z</time>
      </trkpt>
      <trkpt lat="44.4657" lon="7.09502">
        <ele>1248</ele>
        <time>2012-08-09T13:11:30Z</time>
      </trkpt>
      <trkpt lat="44.46588" lon="7.095">
        <ele>1243</ele>
        <time>2012-08-09T13:11:37Z</time>
      </trkpt>
      <trkpt lat="44.466" lon="7.09504">
        <ele>1235</ele>
        <time>2012-08-09T13:11:43Z</time>
      </trkpt>
      <trkpt lat="44.46616" lon="7.09513">
        <ele>1235</ele>
        <time>2012-08-09T13:11:49Z</time>
      </trkpt>
      <trkpt lat="44.46625" lon="7.09521">
        <ele>1232</ele>
        <time>2012-08-09T13:11:52Z</time>
      </trkpt>
      <trkpt lat="44.46635" lon="7.09525">
        <ele>1230</ele>
        <time>2012-08-09T13:11:56Z</time>
      </trkpt>
      <trkpt lat="44.46641" lon="7.09533">
        <ele>1230</ele>
        <time>2012-08-09T13:11:58Z</time>
      </trkpt>
      <trkpt lat="44.46685" lon="7.09568">
        <ele>1226</ele>
        <time>2012-08-09T13:13:17Z</time>
      </trkpt>
      <trkpt lat="44.46684" lon="7.09576">
        <ele>1224</ele>
        <time>2012-08-09T13:13:23Z</time>
      </trkpt>
      <trkpt lat="44.46763" lon="7.09614">
        <ele>1209</ele>
        <time>2012-08-09T13:14:13Z</time>
      </trkpt>
      <trkpt lat="44.46879" lon="7.09584">
        <ele>1188</ele>
        <time>2012-08-09T13:14:58Z</time>
      </trkpt>
      <trkpt lat="44.46888" lon="7.09589">
        <ele>1185</ele>
        <time>2012-08-09T13:15:00Z</time>
      </trkpt>
      <trkpt lat="44.46897" lon="7.09594">
        <ele>1187</ele>
        <time>2012-08-09T13:15:02Z</time>
      </trkpt>
      <trkpt lat="44.46911" lon="7.09576">
        <ele>1185</ele>
        <time>2012-08-09T13:15:24Z</time>
      </trkpt>
      <trkpt lat="44.46924" lon="7.09551">
        <ele>1176</ele>
        <time>2012-08-09T13:15:34Z</time>
      </trkpt>
      <trkpt lat="44.46958" lon="7.0955">
        <ele>1172</ele>
        <time>2012-08-09T13:15:42Z</time>
      </trkpt>
      <trkpt lat="44.46974" lon="7.09552">
        <ele>1168</ele>
        <time>2012-08-09T13:15:47Z</time>
      </trkpt>
      <trkpt lat="44.47004" lon="7.09535">
        <ele>1163</ele>
        <time>2012-08-09T13:16:12Z</time>
      </trkpt>
      <trkpt lat="44.47007" lon="7.09532">
        <ele>1162</ele>
        <time>2012-08-09T13:16:15Z</time>
      </trkpt>
      <trkpt lat="44.46983" lon="7.0951">
        <ele>1154</ele>
        <time>2012-08-09T13:16:28Z</time>
      </trkpt>
      <trkpt lat="44.46973" lon="7.09507">
        <ele>1152</ele>
        <time>2012-08-09T13:16:30Z</time>
      </trkpt>
      <trkpt lat="44.46956" lon="7.09489">
        <ele>1150</ele>
        <time>2012-08-09T13:16:35Z</time>
      </trkpt>
      <trkpt lat="44.46951" lon="7.09482">
        <ele>1147</ele>
        <time>2012-08-09T13:16:39Z</time>
      </trkpt>
      <trkpt lat="44.46953" lon="7.09481">
        <ele>1146</ele>
        <time>2012-08-09T13:16:41Z</time>
      </trkpt>
      <trkpt lat="44.46969" lon="7.09487">
        <ele>1145</ele>
        <time>2012-08-09T13:16:47Z</time>
      </trkpt>
      <trkpt lat="44.46969" lon="7.09486">
        <ele>1143</ele>
        <time>2012-08-09T13:16:48Z</time>
      </trkpt>
      <trkpt lat="44.46971" lon="7.09486">
        <ele>1143</ele>
        <time>2012-08-09T13:16:50Z</time>
      </trkpt>
      <trkpt lat="44.46966" lon="7.09468">
        <ele>1139</ele>
        <time>2012-08-09T13:16:59Z</time>
      </trkpt>
      <trkpt lat="44.47228" lon="7.09552">
        <ele>1087</ele>
        <time>2012-08-09T13:19:53Z</time>
      </trkpt>
      <trkpt lat="44.47297" lon="7.09536">
        <ele>1090</ele>
        <time>2012-08-09T13:20:17Z</time>
      </trkpt>
      <trkpt lat="44.47319" lon="7.09545">
        <ele>1088</ele>
        <time>2012-08-09T13:20:34Z</time>
      </trkpt>
      <trkpt lat="44.4733" lon="7.09523">
        <ele>1089</ele>
        <time>2012-08-09T13:20:56Z</time>
      </trkpt>
      <trkpt lat="44.47331" lon="7.09516">
        <ele>1085</ele>
        <time>2012-08-09T13:20:59Z</time>
      </trkpt>
      <trkpt lat="44.47346" lon="7.09509">
        <ele>1088</ele>
        <time>2012-08-09T13:21:07Z</time>
      </trkpt>
      <trkpt lat="44.4742" lon="7.09453">
        <ele>1077</ele>
        <time>2012-08-09T13:21:55Z</time>
      </trkpt>
      <trkpt lat="44.4748" lon="7.09521">
        <ele>1074</ele>
        <time>2012-08-09T13:22:19Z</time>
      </trkpt>
      <trkpt lat="44.47494" lon="7.0952">
        <ele>1073</ele>
        <time>2012-08-09T13:22:21Z</time>
      </trkpt>
      <trkpt lat="44.47517" lon="7.09517">
        <ele>1036.5</ele>
        <time>2012-08-09T13:22:24Z</time>
      </trkpt>
      <trkpt lat="44.47603" lon="7.09533">
        <ele>1069</ele>
        <time>2012-08-09T13:22:35Z</time>
      </trkpt>
      <trkpt lat="44.47657" lon="7.09547">
        <ele>1067</ele>
        <time>2012-08-09T13:22:42Z</time>
      </trkpt>
      <trkpt lat="44.47781" lon="7.09496">
        <ele>1062</ele>
        <time>2012-08-09T13:22:57Z</time>
      </trkpt>
      <trkpt lat="44.47806" lon="7.09497">
        <ele>1060</ele>
        <time>2012-08-09T13:23:00Z</time>
      </trkpt>
      <trkpt lat="44.47814" lon="7.09502">
        <ele>1057</ele>
        <time>2012-08-09T13:23:01Z</time>
      </trkpt>
      <trkpt lat="44.47873" lon="7.09528">
        <ele>1056</ele>
        <time>2012-08-09T13:23:08Z</time>
      </trkpt>
      <trkpt lat="44.47895" lon="7.09526">
        <ele>1054</ele>
        <time>2012-08-09T13:23:11Z</time>
      </trkpt>
      <trkpt lat="44.47995" lon="7.09492">
        <ele>1051</ele>
        <time>2012-08-09T13:23:24Z</time>
      </trkpt>
      <trkpt lat="44.48035" lon="7.09449">
        <ele>1052</ele>
        <time>2012-08-09T13:23:30Z</time>
      </trkpt>
      <trkpt lat="44.48054" lon="7.09413">
        <ele>1049</ele>
        <time>2012-08-09T13:23:34Z</time>
      </trkpt>
      <trkpt lat="44.48101" lon="7.09381">
        <ele>1047</ele>
        <time>2012-08-09T13:23:41Z</time>
      </trkpt>
      <trkpt lat="44.48142" lon="7.09342">
        <ele>1042</ele>
        <time>2012-08-09T13:23:47Z</time>
      </trkpt>
      <trkpt lat="44.48186" lon="7.09353">
        <ele>1037</ele>
        <time>2012-08-09T13:23:53Z</time>
      </trkpt>
      <trkpt lat="44.48225" lon="7.09391">
        <ele>1032</ele>
        <time>2012-08-09T13:23:59Z</time>
      </trkpt>
      <trkpt lat="44.48248" lon="7.0939">
        <ele>1028</ele>
        <time>2012-08-09T13:24:02Z</time>
      </trkpt>
      <trkpt lat="44.48268" lon="7.094">
        <ele>1024</ele>
        <time>2012-08-09T13:24:04Z</time>
      </trkpt>
      <trkpt lat="44.48335" lon="7.0943">
        <ele>1017</ele>
        <time>2012-08-09T13:24:10Z</time>
      </trkpt>
      <trkpt lat="44.48408" lon="7.09422">
        <ele>1008</ele>
        <time>2012-08-09T13:24:20Z</time>
      </trkpt>
      <trkpt lat="44.48464" lon="7.09376">
        <ele>1005</ele>
        <time>2012-08-09T13:24:29Z</time>
      </trkpt>
      <trkpt lat="44.4853" lon="7.09337">
        <ele>996</ele>
        <time>2012-08-09T13:24:37Z</time>
      </trkpt>
      <trkpt lat="44.48654" lon="7.09375">
        <ele>988</ele>
        <time>2012-08-09T13:24:54Z</time>
      </trkpt>
      <trkpt lat="44.48664" lon="7.0937">
        <ele>987</ele>
        <time>2012-08-09T13:24:57Z</time>
      </trkpt>
      <trkpt lat="44.4867" lon="7.09368">
        <ele>987</ele>
        <time>2012-08-09T13:24:59Z</time>
      </trkpt>
      <trkpt lat="44.48675" lon="7.09367">
        <ele>987</ele>
        <time>2012-08-09T13:25:01Z</time>
      </trkpt>
      <trkpt lat="44.48678" lon="7.09367">
        <ele>987</ele>
        <time>2012-08-09T13:25:03Z</time>
      </trkpt>
      <trkpt lat="44.48622" lon="7.09441">
        <ele>986</ele>
        <time>2012-08-09T13:27:45Z</time>
      </trkpt>
    </trkseg>
  </trk>
</gpx>